Long, Charles (2015): Radiosonde measurements from station Boulder (2013-04) [dataset]. NOAA - Air Resources Laboratory, Boulder, PANGAEA, https://doi.org/10.1594/PANGAEA.846311
Always quote citation above when using data! You can download the citation in several formats below.
Published: 2015-05-19 • DOI registered: 2015-06-16
Other version:
Long, Charles (2015): BSRN Station-to-archive file for station Boulder (2013-04). ftp://ftp.bsrn.awi.de/bou/bou0413.dat.gz
Project(s):
Coverage:
Latitude: 40.050000 * Longitude: -105.007000
Date/Time Start: 2013-04-01T00:00:00 * Date/Time End: 2013-04-30T12:00:00
Minimum ALTITUDE: 15 m * Maximum ALTITUDE: 33048 m
Event(s):
BOU (Boulder) * Latitude: 40.050000 * Longitude: -105.007000 * Date/Time Start: 1992-01-01T00:00:00 * Date/Time End: 2016-06-30T00:00:00 * Elevation: 1577.0 m * Location: Colorado, United States of America * Method/Device: Monitoring station (MONS) * Comment: BSRN station no: 23; Surface type: grass; Topography type: flat, rural; Station scientist: David Longenecker (David.U.Longenecker@noaa.gov) ** Station closed in July 2016 **
Comment:
Start location: Denver, Colorado, USA; Distance from radiation site: 30 km
Parameter(s):
| # | Name | Short Name | Unit | Principal Investigator | Method/Device | Comment |
|---|---|---|---|---|---|---|
| 1 | DATE/TIME | Date/Time | Long, Charles | Geocode | ||
| 2 | ALTITUDE | Altitude | m | Long, Charles | Geocode | |
| 3 | Pressure, at given altitude | PPPP | hPa | Long, Charles | Radiosonde (RADIO) | |
| 4 | Temperature, air | TTT | °C | Long, Charles | Radiosonde (RADIO) | |
| 5 | Dew/frost point | TdTdTd | °C | Long, Charles | Radiosonde (RADIO) | |
| 6 | Wind direction | dd | deg | Long, Charles | Radiosonde (RADIO) | |
| 7 | Wind speed | ff | m/s | Long, Charles | Radiosonde (RADIO) |
License:
Size:
14323 data points
Data
| 1 Date/Time | 2 Altitude [m] | 3 PPPP [hPa] | 4 TTT [°C] | 5 TdTdTd [°C] | 6 dd [deg] | 7 ff [m/s] |
|---|---|---|---|---|---|---|
| 2013-04-01T00:00 | 73 | 1000 | ||||
| 2013-04-01T00:00 | 743 | 925 | ||||
| 2013-04-01T00:00 | 1459 | 850 | ||||
| 2013-04-01T00:00 | 1807 | 816 | 17.0 | -10.0 | ||
| 2013-04-01T00:00 | 2985 | 708 | 4.8 | -13.2 | ||
| 2013-04-01T00:00 | 3080 | 700 | 4.2 | -12.8 | 295 | 3 |
| 2013-04-01T00:00 | 3397 | 673 | 1.6 | -16.4 | ||
| 2013-04-01T00:00 | 3541 | 661 | 1.2 | -22.8 | ||
| 2013-04-01T00:00 | 4076 | 618 | -3.3 | -25.3 | ||
| 2013-04-01T00:00 | 5710 | 500 | -18.3 | -31.3 | 315 | 15 |
| 2013-04-01T00:00 | 5951 | 484 | -20.3 | -32.3 | ||
| 2013-04-01T00:00 | 6183 | 469 | -21.5 | -33.5 | ||
| 2013-04-01T00:00 | 6983 | 420 | -28.5 | -39.5 | ||
| 2013-04-01T00:00 | 7330 | 400 | -30.9 | -42.9 | 300 | 17 |
| 2013-04-01T00:00 | 7673 | 381 | -32.7 | -46.7 | ||
| 2013-04-01T00:00 | 9259 | 302 | -46.1 | -58.1 | ||
| 2013-04-01T00:00 | 9310 | 300 | -46.1 | -58.1 | 290 | 17 |
| 2013-04-01T00:00 | 10500 | 250 | -55.3 | -65.3 | 290 | 22 |
| 2013-04-01T00:00 | 11385 | 217 | -62.7 | -71.7 | ||
| 2013-04-01T00:00 | 11733 | 205 | -64.3 | -73.3 | ||
| 2013-04-01T00:00 | 11880 | 200 | -65.9 | -74.9 | 285 | 24 |
| 2013-04-01T00:00 | 11941 | 198 | -66.3 | -74.3 | ||
| 2013-04-01T00:00 | 12449 | 182 | -67.3 | -75.3 | ||
| 2013-04-01T00:00 | 12652 | 176 | -64.9 | -73.9 | ||
| 2013-04-01T00:00 | 12757 | 173 | -65.1 | -74.1 | ||
| 2013-04-01T00:00 | 12936 | 168 | -62.1 | -71.1 | ||
| 2013-04-01T00:00 | 13010 | 166 | -59.5 | -68.5 | ||
| 2013-04-01T00:00 | 13278 | 159 | -61.1 | -70.1 | ||
| 2013-04-01T00:00 | 13356 | 157 | -60.5 | -69.5 | ||
| 2013-04-01T00:00 | 13516 | 153 | -61.7 | -70.7 | ||
| 2013-04-01T00:00 | 13650 | 150 | -60.3 | -69.3 | 275 | 26 |
| 2013-04-01T00:00 | 13692 | 149 | -59.9 | -68.9 | ||
| 2013-04-01T00:00 | 13862 | 145 | -59.5 | -68.5 | ||
| 2013-04-01T00:00 | 13992 | 142 | -60.9 | -69.9 | ||
| 2013-04-01T00:00 | 14169 | 138 | -61.1 | -70.1 | ||
| 2013-04-01T00:00 | 14260 | 136 | -60.1 | -69.1 | ||
| 2013-04-01T00:00 | 14399 | 133 | -60.5 | -69.5 | ||
| 2013-04-01T00:00 | 14637 | 128 | -59.7 | -69.7 | ||
| 2013-04-01T00:00 | 14836 | 124 | -58.1 | -68.1 | ||
| 2013-04-01T00:00 | 15696 | 108 | -61.7 | -70.7 | ||
| 2013-04-01T00:00 | 16170 | 100 | -62.7 | -71.7 | 285 | 23 |
| 2013-04-01T00:00 | 16672 | 92 | -65.5 | -74.5 | ||
| 2013-04-01T00:00 | 17260 | 83 | -59.5 | -69.5 | ||
| 2013-04-01T00:00 | 17954 | 74 | -59.1 | -69.1 | ||
| 2013-04-01T00:00 | 18380 | 70 | -60.7 | -70.7 | 305 | 16 |
| 2013-04-01T00:00 | 18959 | 63 | -65.1 | -74.1 | ||
| 2013-04-01T00:00 | 19144 | 61 | -63.3 | -72.3 | ||
| 2013-04-01T00:00 | 19235 | 60 | -59.5 | -69.5 | ||
| 2013-04-01T00:00 | 19508 | 58 | -58.5 | -68.5 | ||
| 2013-04-01T00:00 | 19941 | 54 | -59.5 | -69.5 | ||
| 2013-04-01T00:00 | 20470 | 50 | -63.5 | -72.5 | 335 | 9 |
| 2013-04-01T00:00 | 20770 | 47 | -65.1 | -74.1 | ||
| 2013-04-01T00:00 | 20796 | 47 | -64.3 | -73.3 | ||
| 2013-04-01T00:00 | 20822 | 47 | -59.9 | -69.9 | ||
| 2013-04-01T00:00 | 20876 | 46 | -58.9 | -68.9 | ||
| 2013-04-01T00:00 | 20929 | 46 | -55.5 | -66.5 | ||
| 2013-04-01T00:00 | 21068 | 45 | -54.7 | -65.7 | ||
| 2013-04-01T00:00 | 22024 | 39 | -60.9 | -70.9 | ||
| 2013-04-01T00:00 | 22523 | 36 | -58.7 | -68.7 | ||
| 2013-04-01T00:00 | 22806 | 34 | -60.7 | -70.7 | ||
| 2013-04-01T00:00 | 22953 | 33 | -57.9 | -68.9 | ||
| 2013-04-01T00:00 | 23670 | 30 | -58.1 | -69.1 | 300 | 11 |
| 2013-04-01T00:00 | 24062 | 28 | -54.1 | -66.1 | ||
| 2013-04-01T00:00 | 24603 | 25 | -56.9 | -67.9 | ||
| 2013-04-01T00:00 | 25218 | 23 | -56.5 | -68.5 | ||
| 2013-04-01T00:00 | 25410 | 22 | -55.7 | -67.7 | ||
| 2013-04-01T00:00 | 25494 | 22 | -53.7 | -66.7 | ||
| 2013-04-01T00:00 | 25668 | 21 | -52.5 | -65.5 | ||
| 2013-04-01T00:00 | 26260 | 20 | -51.9 | -65.9 | 260 | 11 |
| 2013-04-01T00:00 | 28126 | 15 | -50.3 | -69.3 | ||
| 2013-04-01T00:00 | 28347 | 14 | -47.5 | -69.5 | ||
| 2013-04-01T00:00 | 28578 | 14 | -48.1 | -71.1 | ||
| 2013-04-01T00:00 | 28917 | 13 | -45.9 | -71.9 | ||
| 2013-04-01T00:00 | 29226 | 12 | -42.5 | -71.5 | ||
| 2013-04-01T00:00 | 29664 | 11 | -42.3 | -74.3 | ||
| 2013-04-01T00:00 | 30192 | 11 | -44.3 | -79.3 | ||
| 2013-04-01T00:00 | 30850 | 10 | -41.1 | -78.1 | 255 | 31 |
| 2013-04-01T00:00 | 31490 | 9 | -40.1 | -77.1 | ||
| 2013-04-01T00:00 | 31877 | 8 | -36.9 | -74.9 | ||
| 2013-04-01T00:00 | 32289 | 8 | -37.9 | -75.9 | ||
| 2013-04-01T12:00 | 132 | 1000 | ||||
| 2013-04-01T12:00 | 801 | 925 | ||||
| 2013-04-01T12:00 | 1514 | 850 | ||||
| 2013-04-01T12:00 | 1784 | 822 | 0.6 | -3.5 | ||
| 2013-04-01T12:00 | 1862 | 814 | 2.6 | -2.1 | ||
| 2013-04-01T12:00 | 1922 | 808 | 3.0 | -2.0 | ||
| 2013-04-01T12:00 | 2833 | 721 | -1.7 | -6.7 | ||
| 2013-04-01T12:00 | 3076 | 700 | -1.9 | -8.9 | 220 | 6 |
| 2013-04-01T12:00 | 3201 | 689 | -2.3 | -10.3 | ||
| 2013-04-01T12:00 | 3376 | 674 | -0.5 | -10.5 | ||
| 2013-04-01T12:00 | 3531 | 661 | -1.3 | -13.3 | ||
| 2013-04-01T12:00 | 4149 | 611 | -6.7 | -15.7 | ||
| 2013-04-01T12:00 | 4551 | 580 | -10.3 | -16.3 | ||
| 2013-04-01T12:00 | 4684 | 570 | -11.5 | -18.5 | ||
| 2013-04-01T12:00 | 4860 | 557 | -12.7 | -22.7 | ||
| 2013-04-01T12:00 | 5207 | 532 | -15.5 | -28.5 | ||
| 2013-04-01T12:00 | 5436 | 516 | -16.3 | -35.3 | ||
| 2013-04-01T12:00 | 5680 | 500 | -17.9 | -36.9 | 265 | 13 |
| 2013-04-01T12:00 | 5710 | 498 | -18.1 | -37.1 | ||
| 2013-04-01T12:00 | 6311 | 459 | -23.7 | -42.7 | ||
| 2013-04-01T12:00 | 6651 | 438 | -25.3 | -39.3 | ||
| 2013-04-01T12:00 | 7310 | 400 | -31.5 | -41.5 | 280 | 12 |
| 2013-04-01T12:00 | 7967 | 364 | -37.5 | -46.5 | ||
| 2013-04-01T12:00 | 8374 | 343 | -39.9 | -48.9 | ||
| 2013-04-01T12:00 | 8906 | 317 | -44.5 | -53.5 | ||
| 2013-04-01T12:00 | 9270 | 300 | -46.7 | -55.7 | 265 | 18 |
| 2013-04-01T12:00 | 9771 | 278 | -49.5 | -57.5 | ||
| 2013-04-01T12:00 | 10460 | 250 | -54.9 | -62.9 | 285 | 31 |
| 2013-04-01T12:00 | 10933 | 232 | -58.3 | -66.3 | ||
| 2013-04-01T12:00 | 11821 | 201 | -64.1 | -71.1 | ||
| 2013-04-01T12:00 | 11860 | 200 | -64.1 | -71.1 | 285 | 31 |
| 2013-04-01T12:00 | 12572 | 178 | -63.5 | |||
| 2013-04-01T12:00 | 12962 | 167 | -64.3 | |||
| 2013-04-01T12:00 | 13148 | 162 | -62.7 | |||
| 2013-04-01T12:00 | 13380 | 156 | -62.9 | |||
| 2013-04-01T12:00 | 13500 | 153 | -61.5 | |||
| 2013-04-01T12:00 | 13620 | 150 | -61.3 | 275 | 30 | |
| 2013-04-01T12:00 | 13873 | 144 | -60.3 | |||
| 2013-04-01T12:00 | 14274 | 135 | -60.9 | |||
| 2013-04-01T12:00 | 14414 | 132 | -59.7 | |||
| 2013-04-01T12:00 | 14905 | 122 | -60.1 | |||
| 2013-04-01T12:00 | 15008 | 120 | -58.9 | |||
| 2013-04-01T12:00 | 15607 | 109 | -60.9 | |||
| 2013-04-01T12:00 | 15722 | 107 | -60.1 | |||
| 2013-04-01T12:00 | 15839 | 105 | -60.9 | |||
| 2013-04-01T12:00 | 16150 | 100 | -60.7 | 290 | 26 | |
| 2013-04-01T12:00 | 16429 | 95 | -61.7 | |||
| 2013-04-01T12:00 | 16653 | 92 | -60.1 | |||
| 2013-04-01T12:00 | 17156 | 85 | -62.7 | |||
| 2013-04-01T12:00 | 17569 | 79 | -60.7 | |||
| 2013-04-01T12:00 | 18360 | 70 | -61.1 | 310 | 19 | |
| 2013-04-01T12:00 | 18723 | 66 | -62.1 | |||
| 2013-04-01T12:00 | 19387 | 59 | -59.1 | |||
| 2013-04-01T12:00 | 20062 | 53 | -61.3 | |||
| 2013-04-01T12:00 | 20399 | 50 | -58.5 | |||
| 2013-04-01T12:00 | 20450 | 50 | -58.5 | 315 | 9 | |
| 2013-04-01T12:00 | 20876 | 46 | -61.5 | |||
| 2013-04-01T12:00 | 21243 | 44 | -61.5 | |||
| 2013-04-01T12:00 | 21502 | 42 | -60.3 | |||
| 2013-04-01T12:00 | 21881 | 39 | -61.3 | |||
| 2013-04-01T12:00 | 22137 | 38 | -59.5 | |||
| 2013-04-01T12:00 | 22507 | 35 | -60.5 | |||
| 2013-04-01T12:00 | 22773 | 34 | -59.1 | |||
| 2013-04-01T12:00 | 22938 | 33 | -60.3 | |||
| 2013-04-01T12:00 | 23128 | 32 | -57.7 | |||
| 2013-04-01T12:00 | 23640 | 30 | -59.1 | 260 | 6 | |
| 2013-04-01T12:00 | 24205 | 27 | -60.3 | |||
| 2013-04-01T12:00 | 24654 | 25 | -57.7 | |||
| 2013-04-01T12:00 | 25637 | 21 | -59.3 | |||
| 2013-04-01T12:00 | 25963 | 20 | -55.7 | |||
| 2013-04-01T12:00 | 26190 | 20 | -56.3 | 285 | 12 | |
| 2013-04-01T12:00 | 26548 | 18 | -56.7 | |||
| 2013-04-01T12:00 | 27149 | 17 | -52.9 | |||
| 2013-04-01T12:00 | 27944 | 15 | -52.9 | |||
| 2013-04-01T12:00 | 28522 | 13 | -50.5 | |||
| 2013-04-01T12:00 | 28762 | 13 | -47.5 | |||
| 2013-04-01T12:00 | 29543 | 11 | -48.1 | |||
| 2013-04-01T12:00 | 29885 | 11 | -44.9 | |||
| 2013-04-01T12:00 | 30720 | 10 | -42.7 | 255 | 32 | |
| 2013-04-01T12:00 | 30926 | 9 | -41.7 | |||
| 2013-04-01T12:00 | 31818 | 8 | -41.5 | |||
| 2013-04-01T12:00 | 32146 | 8 | -38.7 | |||
| 2013-04-01T12:00 | 33048 | 7 | -38.9 | -67.9 | ||
| 2013-04-02T00:00 | 113 | 1000 | ||||
| 2013-04-02T00:00 | 769 | 925 | ||||
| 2013-04-02T00:00 | 1471 | 850 | ||||
| 2013-04-02T00:00 | 1681 | 829 | 9.8 | -1.2 | ||
| 2013-04-02T00:00 | 1862 | 811 | 8.0 | -3.0 | ||
| 2013-04-02T00:00 | 2067 | 791 | 7.4 | -3.6 | ||
| 2013-04-02T00:00 | 2641 | 737 | 2.6 | -5.4 | ||
| 2013-04-02T00:00 | 3057 | 700 | -0.3 | -7.3 | 135 | 3 |
| 2013-04-02T00:00 | 3789 | 638 | -5.5 | -10.0 | ||
| 2013-04-02T00:00 | 4177 | 607 | -6.7 | -12.7 | ||
| 2013-04-02T00:00 | 4812 | 559 | -11.9 | -16.9 | ||
| 2013-04-02T00:00 | 4880 | 554 | -12.3 | -18.3 | ||
| 2013-04-02T00:00 | 5005 | 545 | -12.9 | -24.9 | ||
| 2013-04-02T00:00 | 5089 | 539 | -13.7 | -27.7 | ||
| 2013-04-02T00:00 | 5476 | 512 | -16.7 | -26.7 | ||
| 2013-04-02T00:00 | 5549 | 507 | -17.1 | -23.1 | ||
| 2013-04-02T00:00 | 5623 | 502 | -17.7 | -23.7 | ||
| 2013-04-02T00:00 | 5660 | 500 | -18.1 | -24.1 | 255 | 15 |
| 2013-04-02T00:00 | 5705 | 497 | -18.5 | -24.5 | ||
| 2013-04-02T00:00 | 5780 | 492 | -18.7 | -28.7 | ||
| 2013-04-02T00:00 | 5826 | 489 | -19.1 | -30.1 | ||
| 2013-04-02T00:00 | 6339 | 456 | -22.9 | -31.9 | ||
| 2013-04-02T00:00 | 6731 | 432 | -26.5 | -36.5 | ||
| 2013-04-02T00:00 | 7290 | 400 | -31.5 | -37.5 | 260 | 21 |
| 2013-04-02T00:00 | 7343 | 397 | -31.9 | -36.9 | ||
| 2013-04-02T00:00 | 7948 | 364 | -36.9 | -42.9 | ||
| 2013-04-02T00:00 | 8357 | 343 | -38.5 | -47.5 | ||
| 2013-04-02T00:00 | 9215 | 302 | -46.1 | -56.1 | ||
| 2013-04-02T00:00 | 9260 | 300 | -46.3 | -56.3 | 260 | 35 |
| 2013-04-02T00:00 | 9785 | 277 | -49.5 | -59.5 | ||
| 2013-04-02T00:00 | 10450 | 250 | -54.9 | -63.9 | 265 | 42 |
| 2013-04-02T00:00 | 11058 | 227 | -59.9 | -67.9 | ||
| 2013-04-02T00:00 | 11840 | 200 | -62.7 | -70.7 | 260 | 39 |
| 2013-04-02T00:00 | 11871 | 199 | -62.5 | -70.5 | ||
| 2013-04-02T00:00 | 12187 | 189 | -63.7 | -71.7 | ||
| 2013-04-02T00:00 | 12318 | 185 | -62.5 | -70.5 | ||
| 2013-04-02T00:00 | 12555 | 178 | -62.7 | -70.7 | ||
| 2013-04-02T00:00 | 12767 | 172 | -61.1 | -69.1 | ||
| 2013-04-02T00:00 | 12876 | 169 | -59.5 | -67.5 | ||
| 2013-04-02T00:00 | 13140 | 162 | -58.7 | -67.7 | ||
| 2013-04-02T00:00 | 13376 | 156 | -59.3 | -68.3 | ||
| 2013-04-02T00:00 | 13580 | 151 | -58.7 | -67.7 | ||
| 2013-04-02T00:00 | 13630 | 150 | -59.1 | -68.1 | 280 | 28 |
| 2013-04-02T00:00 | 13885 | 144 | -60.1 | -69.1 | ||
| 2013-04-02T00:00 | 14016 | 141 | -59.3 | -68.3 | ||
| 2013-04-02T00:00 | 14105 | 139 | -59.5 | -68.5 | ||
| 2013-04-02T00:00 | 14287 | 135 | -60.5 | -69.5 | ||
| 2013-04-02T00:00 | 14380 | 133 | -59.5 | -68.5 | ||
| 2013-04-02T00:00 | 14619 | 128 | -59.3 | -68.3 | ||
| 2013-04-02T00:00 | 14817 | 124 | -60.7 | -69.7 | ||
| 2013-04-02T00:00 | 14918 | 122 | -58.7 | -67.7 | ||
| 2013-04-02T00:00 | 15074 | 119 | -57.7 | -66.7 | ||
| 2013-04-02T00:00 | 15398 | 113 | -60.1 | -69.1 | ||
| 2013-04-02T00:00 | 15681 | 108 | -58.1 | -67.1 | ||
| 2013-04-02T00:00 | 16170 | 100 | -59.1 | -68.1 | 300 | 20 |
| 2013-04-02T00:00 | 17767 | 77 | -62.5 | -71.5 | ||
| 2013-04-02T00:00 | 18390 | 70 | -60.3 | -69.3 | 290 | 16 |
| 2013-04-02T00:00 | 18534 | 68 | -59.5 | -69.5 | ||
| 2013-04-02T00:00 | 19303 | 60 | -63.1 | -72.1 | ||
| 2013-04-02T00:00 | 20056 | 53 | -57.9 | -67.9 | ||
| 2013-04-02T00:00 | 20418 | 50 | -59.3 | -69.3 | ||
| 2013-04-02T00:00 | 20480 | 50 | -59.3 | -69.3 | 320 | 10 |
| 2013-04-02T00:00 | 20723 | 48 | -57.7 | -67.7 | ||
| 2013-04-02T00:00 | 21576 | 42 | -58.5 | -68.5 | ||
| 2013-04-02T00:00 | 22100 | 38 | -61.9 | -71.9 | ||
| 2013-04-02T00:00 | 23057 | 33 | -58.1 | -69.1 | ||
| 2013-04-02T00:00 | 23690 | 30 | -58.5 | -69.5 | 335 | 8 |
| 2013-04-02T00:00 | 25089 | 24 | -58.5 | -70.5 | ||
| 2013-04-02T00:00 | 25876 | 21 | -53.9 | -67.9 | ||
| 2013-04-02T00:00 | 26250 | 20 | -54.9 | -69.9 | 300 | 9 |
| 2013-04-02T00:00 | 27437 | 16 | -55.1 | -72.1 | ||
| 2013-04-02T00:00 | 28003 | 15 | -50.9 | -73.9 | ||
| 2013-04-02T00:00 | 28534 | 14 | -52.9 | -77.9 | ||
| 2013-04-02T00:00 | 29015 | 13 | -49.3 | -82.3 | ||
| 2013-04-02T00:00 | 29935 | 11 | -47.5 | -82.5 | ||
| 2013-04-02T00:00 | 30174 | 10 | -44.9 | -79.9 | ||
| 2013-04-02T00:00 | 30770 | 10 | -43.1 | -79.1 | 250 | 25 |
| 2013-04-02T00:00 | 30976 | 9 | -41.9 | -77.9 | ||
| 2013-04-02T00:00 | 31555 | 8 | -42.5 | -78.5 | ||
| 2013-04-02T00:00 | 31787 | 8 | -40.3 | -77.3 | ||
| 2013-04-02T00:00 | 32111 | 8 | -40.1 | -77.1 | ||
| 2013-04-02T00:00 | 32912 | 7 | -34.3 | -73.3 | ||
| 2013-04-02T12:00 | 135 | 1000 | ||||
| 2013-04-02T12:00 | 794 | 925 | ||||
| 2013-04-02T12:00 | 1498 | 850 | ||||
| 2013-04-02T12:00 | 1640 | 835 | 2.8 | -0.3 | ||
| 2013-04-02T12:00 | 1973 | 801 | 0.0 | -2.5 | ||
| 2013-04-02T12:00 | 2053 | 793 | 0.2 | -2.6 | ||
| 2013-04-02T12:00 | 2360 | 763 | -1.5 | -2.1 | ||
| 2013-04-02T12:00 | 2668 | 734 | -1.1 | -1.5 | ||
| 2013-04-02T12:00 | 3055 | 700 | -3.5 | -4.1 | 220 | 2 |
| 2013-04-02T12:00 | 3340 | 675 | -5.5 | -5.9 | ||
| 2013-04-02T12:00 | 3422 | 668 | -5.3 | -5.9 | ||
| 2013-04-02T12:00 | 3853 | 632 | -7.9 | -8.8 | ||
| 2013-04-02T12:00 | 4165 | 607 | -9.5 | -15.5 | ||
| 2013-04-02T12:00 | 4331 | 594 | -10.1 | -16.1 | ||
| 2013-04-02T12:00 | 4740 | 563 | -13.1 | -17.7 | ||
| 2013-04-02T12:00 | 5153 | 533 | -16.5 | -23.5 | ||
| 2013-04-02T12:00 | 5496 | 509 | -19.7 | -24.7 | ||
| 2013-04-02T12:00 | 5640 | 500 | -20.7 | -26.7 | 250 | 10 |
| 2013-04-02T12:00 | 5774 | 491 | -21.7 | -27.7 | ||
| 2013-04-02T12:00 | 6408 | 450 | -26.5 | -36.5 | ||
| 2013-04-02T12:00 | 6586 | 439 | -27.1 | -41.1 | ||
| 2013-04-02T12:00 | 7250 | 400 | -30.7 | -44.7 | 245 | 20 |
| 2013-04-02T12:00 | 7268 | 399 | -30.9 | -44.9 | ||
| 2013-04-02T12:00 | 8121 | 353 | -38.7 | -48.7 | ||
| 2013-04-02T12:00 | 8806 | 319 | -44.1 | -53.1 | ||
| 2013-04-02T12:00 | 9220 | 300 | -47.1 | -56.1 | 240 | 29 |
| 2013-04-02T12:00 | 9626 | 282 | -49.7 | -58.7 | ||
| 2013-04-02T12:00 | 10400 | 250 | -56.5 | -64.5 | 240 | 32 |
| 2013-04-02T12:00 | 10579 | 243 | -58.1 | -66.1 | ||
| 2013-04-02T12:00 | 11114 | 223 | -61.5 | -69.5 | ||
| 2013-04-02T12:00 | 11283 | 217 | -61.3 | -69.3 | ||
| 2013-04-02T12:00 | 11790 | 200 | -63.1 | 250 | 23 | |
| 2013-04-02T12:00 | 12271 | 185 | -60.7 | |||
| 2013-04-02T12:00 | 12339 | 183 | -57.7 | |||
| 2013-04-02T12:00 | 12408 | 181 | -57.1 | |||
| 2013-04-02T12:00 | 12878 | 168 | -57.5 | |||
| 2013-04-02T12:00 | 12954 | 166 | -56.3 | |||
| 2013-04-02T12:00 | 13069 | 163 | -56.3 | |||
| 2013-04-02T12:00 | 13386 | 155 | -59.1 | |||
| 2013-04-02T12:00 | 13600 | 150 | -59.7 | 265 | 25 | |
| 2013-04-02T12:00 | 13684 | 148 | -58.7 | |||
| 2013-04-02T12:00 | 13942 | 142 | -60.1 | |||
| 2013-04-02T12:00 | 13986 | 141 | -58.5 | |||
| 2013-04-02T12:00 | 14121 | 138 | -57.9 | |||
| 2013-04-02T12:00 | 14353 | 133 | -57.9 | |||
| 2013-04-02T12:00 | 14642 | 127 | -58.9 | |||
| 2013-04-02T12:00 | 14843 | 123 | -57.1 | |||
| 2013-04-02T12:00 | 14946 | 121 | -57.9 | |||
| 2013-04-02T12:00 | 15432 | 112 | -57.9 | |||
| 2013-04-02T12:00 | 15836 | 105 | -60.1 | |||
| 2013-04-02T12:00 | 16140 | 100 | -59.9 | 285 | 20 | |
| 2013-04-02T12:00 | 16721 | 91 | -59.3 | |||
| 2013-04-02T12:00 | 18370 | 70 | -61.3 | 300 | 20 | |
| 2013-04-02T12:00 | 18397 | 69 | -61.3 | |||
| 2013-04-02T12:00 | 19144 | 61 | -59.5 | |||
| 2013-04-02T12:00 | 19528 | 58 | -61.1 | |||
| 2013-04-02T12:00 | 20240 | 51 | -60.5 | |||
| 2013-04-02T12:00 | 20460 | 50 | -59.1 | 305 | 13 | |
| 2013-04-02T12:00 | 20473 | 49 | -58.9 | |||
| 2013-04-02T12:00 | 20819 | 47 | -61.3 | |||
| 2013-04-02T12:00 | 21130 | 44 | -59.3 | |||
| 2013-04-02T12:00 | 21850 | 40 | -60.1 | |||
| 2013-04-02T12:00 | 22269 | 37 | -59.1 | |||
| 2013-04-02T12:00 | 23398 | 31 | -60.7 | |||
| 2013-04-02T12:00 | 23650 | 30 | -58.9 | 315 | 11 | |
| 2013-04-02T12:00 | 23713 | 29 | -58.7 | |||
| 2013-04-02T12:00 | 24082 | 28 | -59.3 | |||
| 2013-04-02T12:00 | 24647 | 25 | -55.5 | |||
| 2013-04-02T12:00 | 26210 | 20 | -60.7 | 300 | 6 | |
| 2013-04-02T12:00 | 26335 | 19 | -60.9 | |||
| 2013-04-02T12:00 | 26431 | 19 | -58.3 | |||
| 2013-04-02T12:00 | 26664 | 18 | -55.7 | |||
| 2013-04-02T12:00 | 27164 | 17 | -52.9 | |||
| 2013-04-02T12:00 | 27508 | 16 | -55.5 | |||
| 2013-04-02T12:00 | 27996 | 15 | -53.9 | |||
| 2013-04-02T12:00 | 28526 | 13 | -54.9 | |||
| 2013-04-02T12:00 | 29586 | 11 | -47.7 | |||
| 2013-04-02T12:00 | 30288 | 10 | -50.1 | |||
| 2013-04-02T12:00 | 30680 | 10 | -47.5 | 275 | 13 | |
| 2013-04-02T12:00 | 31020 | 9 | -44.7 | |||
| 2013-04-02T12:00 | 31603 | 8 | -47.7 | |||
| 2013-04-02T12:00 | 31914 | 8 | -45.5 | |||
| 2013-04-02T12:00 | 32159 | 8 | -45.9 | |||
| 2013-04-02T12:00 | 32415 | 7 | -42.5 | |||
| 2013-04-02T12:00 | 32592 | 7 | -43.3 | |||
| 2013-04-02T12:00 | 32868 | 7 | -40.5 | -63.5 | ||
| 2013-04-03T00:00 | 159 | 1000 | ||||
| 2013-04-03T00:00 | 808 | 925 | ||||
| 2013-04-03T00:00 | 1501 | 850 | ||||
| 2013-04-03T00:00 | 1785 | 821 | 1.0 | -0.2 | ||
| 2013-04-03T00:00 | 2042 | 795 | -0.7 | -1.5 | ||
| 2013-04-03T00:00 | 2296 | 770 | -0.9 | -1.7 | ||
| 2013-04-03T00:00 | 3052 | 700 | -5.3 | -6.7 | 105 | 4 |
| 2013-04-03T00:00 | 3187 | 688 | -6.1 | -7.7 | ||
| 2013-04-03T00:00 | 3267 | 681 | -5.3 | -6.4 | ||
| 2013-04-03T00:00 | 3371 | 672 | -5.7 | -7.0 | ||
| 2013-04-03T00:00 | 3618 | 651 | -7.1 | -9.3 | ||
| 2013-04-03T00:00 | 3896 | 628 | -9.1 | -10.6 | ||
| 2013-04-03T00:00 | 4158 | 607 | -9.7 | -11.8 | ||
| 2013-04-03T00:00 | 4612 | 572 | -13.3 | -16.5 | ||
| 2013-04-03T00:00 | 4705 | 565 | -14.7 | -20.7 | ||
| 2013-04-03T00:00 | 4840 | 555 | -15.3 | -21.3 | ||
| 2013-04-03T00:00 | 4922 | 549 | -15.3 | -20.3 | ||
| 2013-04-03T00:00 | 5414 | 514 | -19.3 | -23.2 | ||
| 2013-04-03T00:00 | 5530 | 506 | -20.5 | -24.9 | ||
| 2013-04-03T00:00 | 5630 | 500 | -21.9 | -29.9 | 140 | 8 |
| 2013-04-03T00:00 | 5704 | 495 | -22.7 | -34.7 | ||
| 2013-04-03T00:00 | 5793 | 489 | -22.9 | -36.9 | ||
| 2013-04-03T00:00 | 6523 | 442 | -28.3 | -42.3 | ||
| 2013-04-03T00:00 | 7004 | 413 | -32.3 | -42.3 | ||
| 2013-04-03T00:00 | 7230 | 400 | -33.7 | -45.7 | 240 | 2 |
| 2013-04-03T00:00 | 7641 | 377 | -36.7 | -49.7 | ||
| 2013-04-03T00:00 | 9180 | 300 | -50.5 | -59.5 | 215 | 12 |
| 2013-04-03T00:00 | 9556 | 283 | -53.9 | -61.9 | ||
| 2013-04-03T00:00 | 10340 | 250 | -57.3 | -65.3 | 200 | 14 |
| 2013-04-03T00:00 | 10545 | 242 | -57.3 | -65.3 | ||
| 2013-04-03T00:00 | 10922 | 228 | -55.5 | -63.5 | ||
| 2013-04-03T00:00 | 11265 | 216 | -56.7 | -65.7 | ||
| 2013-04-03T00:00 | 11474 | 209 | -55.9 | -64.9 | ||
| 2013-04-03T00:00 | 11760 | 200 | -57.1 | -66.1 | 215 | 9 |
| 2013-04-03T00:00 | 12251 | 185 | -58.1 | -67.1 | ||
| 2013-04-03T00:00 | 12424 | 180 | -56.3 | -65.3 | ||
| 2013-04-03T00:00 | 12712 | 172 | -56.5 | -65.5 | ||
| 2013-04-03T00:00 | 12786 | 170 | -55.3 | -64.3 | ||
| 2013-04-03T00:00 | 13014 | 164 | -55.5 | -64.5 | ||
| 2013-04-03T00:00 | 13092 | 162 | -54.9 | -63.9 | ||
| 2013-04-03T00:00 | 13373 | 155 | -56.3 | -65.3 | ||
| 2013-04-03T00:00 | 13590 | 150 | -56.1 | -65.1 | 265 | 14 |
| 2013-04-03T00:00 | 14165 | 137 | -55.5 | -64.5 | ||
| 2013-04-03T00:00 | 14353 | 133 | -56.9 | -65.9 | ||
| 2013-04-03T00:00 | 14644 | 127 | -57.1 | -66.1 | ||
| 2013-04-03T00:00 | 15000 | 120 | -58.7 | -67.7 | ||
| 2013-04-03T00:00 | 15604 | 109 | -57.1 | -66.1 | ||
| 2013-04-03T00:00 | 15900 | 104 | -57.5 | -66.5 | ||
| 2013-04-03T00:00 | 16022 | 102 | -58.5 | -67.5 | ||
| 2013-04-03T00:00 | 16084 | 101 | -57.7 | -66.7 | ||
| 2013-04-03T00:00 | 16150 | 100 | -58.3 | -67.3 | 280 | 17 |
| 2013-04-03T00:00 | 17678 | 78 | -60.3 | -69.3 | ||
| 2013-04-03T00:00 | 17815 | 76 | -59.1 | -68.1 | ||
| 2013-04-03T00:00 | 18380 | 70 | -60.1 | -69.1 | 280 | 15 |
| 2013-04-03T00:00 | 18469 | 69 | -60.7 | -69.7 | ||
| 2013-04-03T00:00 | 18860 | 64 | -58.9 | -68.9 | ||
| 2013-04-03T00:00 | 19383 | 59 | -59.3 | -69.3 | ||
| 2013-04-03T00:00 | 20091 | 53 | -60.3 | -70.3 | ||
| 2013-04-03T00:00 | 20328 | 51 | -62.1 | -71.1 | ||
| 2013-04-03T00:00 | 20480 | 50 | -61.3 | -70.3 | 285 | 16 |
| 2013-04-03T00:00 | 20542 | 49 | -60.9 | -69.9 | ||
| 2013-04-03T00:00 | 20669 | 48 | -58.3 | -68.3 | ||
| 2013-04-03T00:00 | 21222 | 44 | -59.5 | -69.5 | ||
| 2013-04-03T00:00 | 22134 | 38 | -56.7 | -66.7 | ||
| 2013-04-03T00:00 | 22862 | 34 | -59.3 | -69.3 | ||
| 2013-04-03T00:00 | 23144 | 32 | -56.3 | -66.3 | ||
| 2013-04-03T00:00 | 23700 | 30 | -56.5 | -67.5 | 210 | 3 |
| 2013-04-03T00:00 | 24578 | 26 | -58.1 | -69.1 | ||
| 2013-04-03T00:00 | 25323 | 23 | -55.1 | -66.1 | ||
| 2013-04-03T00:00 | 25603 | 22 | -55.9 | -66.9 | ||
| 2013-04-03T00:00 | 25988 | 20 | -53.5 | -65.5 | ||
| 2013-04-03T00:00 | 26270 | 20 | -55.5 | -67.5 | 320 | 4 |
| 2013-04-03T00:00 | 26431 | 19 | -55.9 | -67.9 | ||
| 2013-04-03T00:00 | 26698 | 18 | -54.5 | -67.5 | ||
| 2013-04-03T00:00 | 27084 | 17 | -55.3 | -68.3 | ||
| 2013-04-03T00:00 | 27695 | 16 | -52.1 | -67.1 | ||
| 2013-04-03T00:00 | 28740 | 13 | -53.9 | -69.9 | ||
| 2013-04-03T00:00 | 29183 | 12 | -48.9 | -68.9 | ||
| 2013-04-03T00:00 | 29610 | 11 | -47.7 | -68.7 | ||
| 2013-04-03T00:00 | 29779 | 11 | -45.5 | -66.5 | ||
| 2013-04-03T00:00 | 30503 | 10 | -46.7 | -68.7 | ||
| 2013-04-03T00:00 | 30780 | 10 | -46.1 | -69.1 | 260 | 12 |
| 2013-04-03T00:00 | 31632 | 8 | -43.7 | -69.7 | ||
| 2013-04-03T00:00 | 31864 | 8 | -44.7 | -71.7 | ||
| 2013-04-03T00:00 | 32356 | 7 | -41.1 | -69.1 | ||
| 2013-04-03T12:00 | 169 | 1000 | ||||
| 2013-04-03T12:00 | 817 | 925 | ||||
| 2013-04-03T12:00 | 1511 | 850 | ||||
| 2013-04-03T12:00 | 1688 | 832 | 2.4 | 1.0 | ||
| 2013-04-03T12:00 | 1824 | 818 | 1.8 | -0.7 | ||
| 2013-04-03T12:00 | 1933 | 807 | 0.8 | -0.5 | ||
| 2013-04-03T12:00 | 2485 | 753 | -1.1 | -2.5 | ||
| 2013-04-03T12:00 | 2971 | 708 | -4.9 | -5.7 | ||
| 2013-04-03T12:00 | 3063 | 700 | -4.7 | -5.2 | 355 | 5 |
| 2013-04-03T12:00 | 3108 | 696 | -4.5 | -5.1 | ||
| 2013-04-03T12:00 | 3441 | 667 | -6.3 | -7.9 | ||
| 2013-04-03T12:00 | 4308 | 596 | -12.7 | -13.3 | ||
| 2013-04-03T12:00 | 4580 | 575 | -13.5 | -16.7 | ||
| 2013-04-03T12:00 | 5550 | 505 | -21.1 | -24.2 | ||
| 2013-04-03T12:00 | 5630 | 500 | -21.7 | -24.6 | 15 | 8 |
| 2013-04-03T12:00 | 5838 | 486 | -23.3 | -25.4 | ||
| 2013-04-03T12:00 | 5989 | 476 | -24.5 | -30.5 | ||
| 2013-04-03T12:00 | 6190 | 463 | -25.7 | -35.7 | ||
| 2013-04-03T12:00 | 6802 | 425 | -31.1 | -37.1 | ||
| 2013-04-03T12:00 | 7240 | 400 | -34.5 | -41.5 | 35 | 12 |
| 2013-04-03T12:00 | 7908 | 363 | -40.1 | -48.1 | ||
| 2013-04-03T12:00 | 9180 | 300 | -51.1 | -58.1 | 25 | 13 |
| 2013-04-03T12:00 | 9761 | 274 | -56.3 | -62.3 | ||
| 2013-04-03T12:00 | 10091 | 260 | -58.9 | -64.9 | ||
| 2013-04-03T12:00 | 10340 | 250 | -57.1 | -63.1 | 45 | 14 |
| 2013-04-03T12:00 | 10416 | 247 | -56.1 | -62.1 | ||
| 2013-04-03T12:00 | 10785 | 233 | -56.7 | -63.7 | ||
| 2013-04-03T12:00 | 10867 | 230 | -55.9 | -62.9 | ||
| 2013-04-03T12:00 | 11091 | 222 | -56.7 | -63.7 | ||
| 2013-04-03T12:00 | 11474 | 209 | -54.5 | -61.5 | ||
| 2013-04-03T12:00 | 11760 | 200 | -55.7 | -63.7 | 315 | 9 |
| 2013-04-03T12:00 | 11792 | 199 | -56.1 | -64.1 | ||
| 2013-04-03T12:00 | 12153 | 188 | -55.1 | -63.1 | ||
| 2013-04-03T12:00 | 12644 | 174 | -56.7 | -64.7 | ||
| 2013-04-03T12:00 | 13057 | 163 | -56.1 | -64.1 | ||
| 2013-04-03T12:00 | 13580 | 150 | -56.9 | -65.9 | 295 | 13 |
| 2013-04-03T12:00 | 14108 | 138 | -56.1 | -65.1 | ||
| 2013-04-03T12:00 | 14341 | 133 | -57.3 | -66.3 | ||
| 2013-04-03T12:00 | 14437 | 131 | -56.9 | -65.9 | ||
| 2013-04-03T12:00 | 14682 | 126 | -58.1 | -67.1 | ||
| 2013-04-03T12:00 | 14988 | 120 | -58.1 | -67.1 | ||
| 2013-04-03T12:00 | 15200 | 116 | -59.1 | -68.1 | ||
| 2013-04-03T12:00 | 15706 | 107 | -57.7 | -66.7 | ||
| 2013-04-03T12:00 | 16140 | 100 | -57.7 | -66.7 | 285 | 13 |
| 2013-04-03T12:00 | 17383 | 82 | -59.5 | -68.5 | ||
| 2013-04-03T12:00 | 17917 | 75 | -58.1 | -68.1 | ||
| 2013-04-03T12:00 | 18380 | 70 | -59.1 | -69.1 | 285 | 14 |
| 2013-04-03T12:00 | 18407 | 69 | -59.1 | -69.1 | ||
| 2013-04-03T12:00 | 19012 | 63 | -57.3 | -67.3 | ||
| 2013-04-03T12:00 | 19411 | 59 | -59.5 | -69.5 | ||
| 2013-04-03T12:00 | 19881 | 55 | -58.1 | -68.1 | ||
| 2013-04-03T12:00 | 20490 | 50 | -60.9 | -70.9 | 220 | 5 |
| 2013-04-03T12:00 | 20886 | 46 | -61.5 | -71.5 | ||
| 2013-04-03T12:00 | 21170 | 44 | -59.5 | -69.5 | ||
| 2013-04-03T12:00 | 21705 | 41 | -61.9 | -71.9 | ||
| 2013-04-03T12:00 | 22258 | 37 | -58.9 | -69.9 | ||
| 2013-04-03T12:00 | 22832 | 34 | -59.3 | -70.3 | ||
| 2013-04-03T12:00 | 23056 | 33 | -56.7 | -68.7 | ||
| 2013-04-03T12:00 | 23612 | 30 | -59.1 | -70.1 | ||
| 2013-04-03T12:00 | 23690 | 30 | -58.9 | -70.9 | 310 | 7 |
| 2013-04-03T12:00 | 23969 | 28 | -56.7 | -68.7 | ||
| 2013-04-03T12:00 | 24720 | 25 | -54.7 | -67.7 | ||
| 2013-04-03T12:00 | 25431 | 22 | -56.5 | -70.5 | ||
| 2013-04-03T12:00 | 26138 | 20 | -54.7 | -70.7 | ||
| 2013-04-03T12:00 | 26260 | 20 | -55.3 | -71.3 | 320 | 5 |
| 2013-04-03T12:00 | 27035 | 17 | -56.5 | -73.5 | ||
| 2013-04-03T12:00 | 27481 | 16 | -54.9 | -74.9 | ||
| 2013-04-03T12:00 | 27838 | 15 | -55.3 | -75.3 | ||
| 2013-04-03T12:00 | 28176 | 14 | -51.7 | -80.7 | ||
| 2013-04-03T12:00 | 28308 | 14 | -51.7 | -82.7 | ||
| 2013-04-03T12:00 | 28444 | 14 | -48.9 | -82.9 | ||
| 2013-04-03T12:00 | 28974 | 13 | -47.5 | -82.5 | ||
| 2013-04-03T12:00 | 29442 | 12 | -48.9 | -82.9 | ||
| 2013-04-03T12:00 | 29889 | 11 | -46.3 | -81.3 | ||
| 2013-04-03T12:00 | 30369 | 10 | -47.7 | -82.7 | ||
| 2013-04-03T12:00 | 30770 | 10 | -45.9 | -80.9 | 250 | 12 |
| 2013-04-03T12:00 | 31042 | 9 | -44.5 | -80.5 | ||
| 2013-04-04T00:00 | 120 | 1000 | ||||
| 2013-04-04T00:00 | 782 | 925 | ||||
| 2013-04-04T00:00 | 1491 | 850 | ||||
| 2013-04-04T00:00 | 1671 | 832 | 13.4 | -10.6 | ||
| 2013-04-04T00:00 | 2408 | 761 | 6.4 | -9.6 | ||
| 2013-04-04T00:00 | 2846 | 721 | 3.4 | -14.6 | ||
| 2013-04-04T00:00 | 3089 | 700 | 1.2 | -15.8 | 12 | |
| 2013-04-04T00:00 | 3545 | 661 | -2.7 | -16.7 | ||
| 2013-04-04T00:00 | 3910 | 631 | -5.9 | -14.9 | ||
| 2013-04-04T00:00 | 4706 | 569 | -13.3 | -24.3 | ||
| 2013-04-04T00:00 | 5298 | 526 | -17.3 | -30.3 | ||
| 2013-04-04T00:00 | 5384 | 520 | -17.9 | -33.9 | ||
| 2013-04-04T00:00 | 5680 | 500 | -20.5 | -36.5 | 350 | 13 |
| 2013-04-04T00:00 | 6723 | 433 | -29.5 | -42.5 | ||
| 2013-04-04T00:00 | 6889 | 423 | -29.9 | -43.9 | ||
| 2013-04-04T00:00 | 7290 | 400 | -33.1 | -48.1 | 350 | 11 |
| 2013-04-04T00:00 | 7593 | 383 | -35.3 | -49.3 | ||
| 2013-04-04T00:00 | 8916 | 315 | -47.5 | -57.5 | ||
| 2013-04-04T00:00 | 9240 | 300 | -49.9 | -59.9 | 350 | 12 |
| 2013-04-04T00:00 | 10410 | 250 | -58.1 | -67.1 | 335 | 15 |
| 2013-04-04T00:00 | 10588 | 243 | -59.3 | -68.3 | ||
| 2013-04-04T00:00 | 11179 | 221 | -60.7 | -69.7 | ||
| 2013-04-04T00:00 | 11349 | 215 | -62.1 | -71.1 | ||
| 2013-04-04T00:00 | 11800 | 200 | -59.9 | -68.9 | 330 | 17 |
| 2013-04-04T00:00 | 11831 | 199 | -59.9 | -68.9 | ||
| 2013-04-04T00:00 | 11894 | 197 | -58.7 | -67.7 | ||
| 2013-04-04T00:00 | 12023 | 193 | -57.7 | -66.7 | ||
| 2013-04-04T00:00 | 12221 | 187 | -59.1 | -68.1 | ||
| 2013-04-04T00:00 | 12459 | 180 | -59.7 | -68.7 | ||
| 2013-04-04T00:00 | 12635 | 175 | -58.7 | -67.7 | ||
| 2013-04-04T00:00 | 12781 | 171 | -56.1 | -65.1 | ||
| 2013-04-04T00:00 | 13241 | 159 | -57.5 | -66.5 | ||
| 2013-04-04T00:00 | 13442 | 154 | -57.1 | -66.1 | ||
| 2013-04-04T00:00 | 13610 | 150 | -57.9 | -66.9 | 300 | 14 |
| 2013-04-04T00:00 | 13694 | 148 | -58.1 | -67.1 | ||
| 2013-04-04T00:00 | 13866 | 144 | -57.9 | -66.9 | ||
| 2013-04-04T00:00 | 13999 | 141 | -56.5 | -66.5 | ||
| 2013-04-04T00:00 | 14367 | 133 | -57.9 | -67.9 | ||
| 2013-04-04T00:00 | 14511 | 130 | -56.9 | -66.9 | ||
| 2013-04-04T00:00 | 14809 | 124 | -57.1 | -67.1 | ||
| 2013-04-04T00:00 | 15015 | 120 | -58.3 | -68.3 | ||
| 2013-04-04T00:00 | 15337 | 114 | -58.3 | -68.3 | ||
| 2013-04-04T00:00 | 15676 | 108 | -59.9 | -68.9 | ||
| 2013-04-04T00:00 | 15792 | 106 | -58.9 | -68.9 | ||
| 2013-04-04T00:00 | 16170 | 100 | -59.9 | -68.9 | 300 | 16 |
| 2013-04-04T00:00 | 17160 | 85 | -59.9 | -69.9 | ||
| 2013-04-04T00:00 | 17667 | 78 | -61.5 | -70.5 | ||
| 2013-04-04T00:00 | 18390 | 70 | -58.5 | -68.5 | 280 | 15 |
| 2013-04-04T00:00 | 18444 | 69 | -58.3 | -68.3 | ||
| 2013-04-04T00:00 | 18673 | 66 | -59.9 | -69.9 | ||
| 2013-04-04T00:00 | 19118 | 62 | -58.5 | -68.5 | ||
| 2013-04-04T00:00 | 19863 | 55 | -59.9 | -69.9 | ||
| 2013-04-04T00:00 | 20059 | 53 | -57.1 | -67.1 | ||
| 2013-04-04T00:00 | 20449 | 50 | -54.9 | -65.9 | ||
| 2013-04-04T00:00 | 20500 | 50 | -55.5 | -66.5 | 275 | 5 |
| 2013-04-04T00:00 | 20851 | 47 | -57.7 | -67.7 | ||
| 2013-04-04T00:00 | 21394 | 43 | -56.7 | -67.7 | ||
| 2013-04-04T00:00 | 22212 | 38 | -59.7 | -69.7 | ||
| 2013-04-04T00:00 | 22498 | 36 | -57.9 | -68.9 | ||
| 2013-04-04T00:00 | 23018 | 33 | -59.1 | -69.1 | ||
| 2013-04-04T00:00 | 23730 | 30 | -54.5 | -65.5 | 275 | 7 |
| 2013-04-04T00:00 | 23991 | 28 | -53.7 | -65.7 | ||
| 2013-04-04T00:00 | 25647 | 22 | -56.9 | -68.9 | ||
| 2013-04-04T00:00 | 25704 | 22 | -55.1 | -67.1 | ||
| 2013-04-04T00:00 | 25910 | 21 | -55.5 | -67.5 | ||
| 2013-04-04T00:00 | 26187 | 20 | -51.7 | -65.7 | ||
| 2013-04-04T00:00 | 26320 | 20 | -51.9 | -65.9 | 330 | 4 |
| 2013-04-04T00:00 | 26652 | 19 | -50.5 | -65.5 | ||
| 2013-04-04T00:00 | 26860 | 18 | -51.7 | -66.7 | ||
| 2013-04-04T00:00 | 27297 | 17 | -50.7 | -67.7 | ||
| 2013-04-04T00:00 | 28054 | 15 | -52.7 | -71.7 | ||
| 2013-04-04T00:00 | 28718 | 13 | -52.7 | -74.7 | ||
| 2013-04-04T00:00 | 28860 | 13 | -51.1 | -75.1 | ||
| 2013-04-04T00:00 | 29154 | 12 | -51.9 | -76.9 | ||
| 2013-04-04T00:00 | 29791 | 11 | -47.9 | -79.9 | ||
| 2013-04-04T00:00 | 30692 | 10 | -48.5 | -82.5 | ||
| 2013-04-04T00:00 | 30840 | 10 | -46.1 | -81.1 | 275 | 15 |
| 2013-04-04T00:00 | 30907 | 9 | -45.5 | -80.5 | ||
| 2013-04-04T00:00 | 31615 | 8 | -45.5 | -80.5 | ||
| 2013-04-04T00:00 | 32499 | 7 | -41.7 | -77.7 | ||
| 2013-04-04T12:00 | 154 | 1000 | ||||
| 2013-04-04T12:00 | 815 | 925 | ||||
| 2013-04-04T12:00 | 1524 | 850 | ||||
| 2013-04-04T12:00 | 1718 | 830 | 8.4 | -1.6 | ||
| 2013-04-04T12:00 | 1818 | 820 | 8.2 | -2.8 | ||
| 2013-04-04T12:00 | 2696 | 736 | 2.0 | -6.0 | ||
| 2013-04-04T12:00 | 3106 | 700 | -0.3 | -8.3 | 310 | 8 |
| 2013-04-04T12:00 | 3301 | 683 | -1.5 | -9.5 | ||
| 2013-04-04T12:00 | 4772 | 565 | -13.7 | -19.7 | ||
| 2013-04-04T12:00 | 5700 | 500 | -19.7 | -31.7 | 315 | 11 |
| 2013-04-04T12:00 | 5774 | 495 | -20.1 | -32.1 | ||
| 2013-04-04T12:00 | 6846 | 427 | -29.3 | -41.3 | ||
| 2013-04-04T12:00 | 7310 | 400 | -31.9 | -43.9 | 340 | 22 |
| 2013-04-04T12:00 | 7688 | 379 | -33.7 | -46.7 | ||
| 2013-04-04T12:00 | 9187 | 304 | -47.1 | -57.1 | ||
| 2013-04-04T12:00 | 9280 | 300 | -47.7 | -57.7 | 345 | 25 |
| 2013-04-04T12:00 | 10460 | 250 | -57.3 | -66.3 | 350 | 24 |
| 2013-04-04T12:00 | 10717 | 240 | -58.5 | -67.5 | ||
| 2013-04-04T12:00 | 11313 | 218 | -63.3 | -71.3 | ||
| 2013-04-04T12:00 | 11630 | 207 | -63.5 | -71.5 | ||
| 2013-04-04T12:00 | 11840 | 200 | -65.3 | 330 | 24 | |
| 2013-04-04T12:00 | 12152 | 190 | -63.9 | -71.9 | ||
| 2013-04-04T12:00 | 12282 | 186 | -64.7 | -72.7 | ||
| 2013-04-04T12:00 | 12381 | 183 | -63.5 | -71.5 | ||
| 2013-04-04T12:00 | 12482 | 180 | -63.7 | -71.7 | ||
| 2013-04-04T12:00 | 12551 | 178 | -62.3 | -70.3 | ||
| 2013-04-04T12:00 | 12656 | 175 | -60.5 | -69.5 | ||
| 2013-04-04T12:00 | 12946 | 167 | -61.3 | -70.3 | ||
| 2013-04-04T12:00 | 13252 | 159 | -58.5 | -67.5 | ||
| 2013-04-04T12:00 | 13452 | 154 | -59.1 | -68.1 | ||
| 2013-04-04T12:00 | 13576 | 151 | -57.7 | -66.7 | ||
| 2013-04-04T12:00 | 13630 | 150 | -57.7 | 310 | 25 | |
| 2013-04-04T12:00 | 13800 | 146 | -57.3 | -66.3 | ||
| 2013-04-04T12:00 | 14020 | 141 | -57.5 | -66.5 | ||
| 2013-04-04T12:00 | 14480 | 131 | -60.5 | -69.5 | ||
| 2013-04-04T12:00 | 14873 | 123 | -59.1 | -68.1 | ||
| 2013-04-04T12:00 | 15184 | 117 | -61.3 | -70.3 | ||
| 2013-04-04T12:00 | 15237 | 116 | -61.1 | -70.1 | ||
| 2013-04-04T12:00 | 15455 | 112 | -59.1 | -68.1 | ||
| 2013-04-04T12:00 | 16040 | 102 | -58.9 | -67.9 | ||
| 2013-04-04T12:00 | 16170 | 100 | -57.7 | 305 | 15 | |
| 2013-04-04T12:00 | 16726 | 91 | -60.5 | |||
| 2013-04-04T12:00 | 17191 | 84 | -59.9 | |||
| 2013-04-04T12:00 | 17717 | 78 | -61.5 | |||
| 2013-04-04T12:00 | 18069 | 73 | -59.1 | |||
| 2013-04-04T12:00 | 18390 | 70 | -60.1 | 300 | 18 | |
| 2013-04-04T12:00 | 18543 | 68 | -61.1 | |||
| 2013-04-04T12:00 | 19802 | 55 | -58.5 | |||
| 2013-04-04T12:00 | 20435 | 50 | -62.1 | |||
| 2013-04-04T12:00 | 20490 | 50 | -61.7 | 275 | 12 | |
| 2013-04-04T12:00 | 20577 | 49 | -61.7 | |||
| 2013-04-04T12:00 | 20666 | 48 | -59.1 | |||
| 2013-04-04T12:00 | 20862 | 47 | -58.5 | |||
| 2013-04-04T12:00 | 21122 | 45 | -54.9 | |||
| 2013-04-04T12:00 | 22120 | 38 | -58.5 | |||
| 2013-04-04T12:00 | 22865 | 34 | -55.9 | |||
| 2013-04-04T12:00 | 23720 | 30 | -57.9 | 10 | 4 | |
| 2013-04-04T12:00 | 23954 | 28 | -58.5 | |||
| 2013-04-04T12:00 | 24844 | 25 | -55.5 | |||
| 2013-04-04T12:00 | 25508 | 22 | -57.1 | |||
| 2013-04-04T12:00 | 25650 | 22 | -55.7 | |||
| 2013-04-04T12:00 | 25914 | 21 | -56.3 | |||
| 2013-04-04T12:00 | 26290 | 20 | -55.1 | 310 | 8 | |
| 2013-04-04T12:00 | 26720 | 18 | -53.3 | |||
| 2013-04-04T12:00 | 27000 | 17 | -53.7 | |||
| 2013-04-04T12:00 | 27294 | 17 | -51.9 | |||
| 2013-04-04T12:00 | 27973 | 15 | -50.5 | |||
| 2013-04-04T12:00 | 28409 | 14 | -51.5 | |||
| 2013-04-04T12:00 | 28734 | 13 | -47.5 | |||
| 2013-04-04T12:00 | 29832 | 11 | -46.7 | |||
| 2013-04-04T12:00 | 30122 | 11 | -48.1 | |||
| 2013-04-04T12:00 | 30488 | 10 | -46.5 | |||
| 2013-04-04T12:00 | 30820 | 10 | -47.9 | 265 | 13 | |
| 2013-04-04T12:00 | 30886 | 9 | -48.1 | |||
| 2013-04-04T12:00 | 31515 | 9 | -46.5 | |||
| 2013-04-04T12:00 | 31976 | 8 | -41.9 | |||
| 2013-04-04T12:00 | 32222 | 8 | -40.9 | |||
| 2013-04-04T12:00 | 32832 | 7 | -42.9 | |||
| 2013-04-04T12:00 | 32924 | 7 | -41.9 | |||
| 2013-04-05T00:00 | 95 | 1000 | ||||
| 2013-04-05T00:00 | 766 | 925 | ||||
| 2013-04-05T00:00 | 1483 | 850 | ||||
| 2013-04-05T00:00 | 1662 | 832 | 18.2 | -8.8 | ||
| 2013-04-05T00:00 | 1920 | 807 | 15.4 | -12.6 | ||
| 2013-04-05T00:00 | 3072 | 702 | 4.4 | -12.6 | ||
| 2013-04-05T00:00 | 3103 | 700 | 4.2 | -12.8 | 245 | 5 |
| 2013-04-05T00:00 | 4264 | 605 | -5.1 | -18.1 | ||
| 2013-04-05T00:00 | 4946 | 554 | -10.5 | -26.5 | ||
| 2013-04-05T00:00 | 5015 | 549 | -10.9 | -31.9 | ||
| 2013-04-05T00:00 | 5113 | 542 | -11.5 | -33.5 | ||
| 2013-04-05T00:00 | 5649 | 505 | -15.3 | -31.3 | ||
| 2013-04-05T00:00 | 5709 | 501 | -15.7 | -28.7 | ||
| 2013-04-05T00:00 | 5740 | 500 | -15.7 | -27.7 | 305 | 15 |
| 2013-04-05T00:00 | 5846 | 493 | -16.7 | -27.7 | ||
| 2013-04-05T00:00 | 6139 | 474 | -18.3 | -29.3 | ||
| 2013-04-05T00:00 | 6574 | 447 | -19.9 | -33.9 | ||
| 2013-04-05T00:00 | 7118 | 415 | -24.7 | -37.7 | ||
| 2013-04-05T00:00 | 7380 | 400 | -27.3 | -37.3 | 310 | 17 |
| 2013-04-05T00:00 | 7488 | 394 | -28.3 | -37.3 | ||
| 2013-04-05T00:00 | 8204 | 356 | -34.3 | -43.3 | ||
| 2013-04-05T00:00 | 9390 | 300 | -43.7 | -51.7 | 320 | 28 |
| 2013-04-05T00:00 | 10590 | 250 | -53.1 | -62.1 | 320 | 31 |
| 2013-04-05T00:00 | 11980 | 200 | -65.3 | 315 | 31 | |
| 2013-04-05T00:00 | 12710 | 177 | -71.7 | |||
| 2013-04-05T00:00 | 12948 | 170 | -70.9 | |||
| 2013-04-05T00:00 | 13196 | 163 | -71.5 | |||
| 2013-04-05T00:00 | 13343 | 159 | -69.5 | |||
| 2013-04-05T00:00 | 13533 | 154 | -69.9 | |||
| 2013-04-05T00:00 | 13572 | 153 | -69.1 | |||
| 2013-04-05T00:00 | 13651 | 151 | -66.1 | |||
| 2013-04-05T00:00 | 13700 | 150 | -64.7 | 305 | 24 | |
| 2013-04-05T00:00 | 14122 | 140 | -62.9 | |||
| 2013-04-05T00:00 | 14300 | 136 | -62.3 | |||
| 2013-04-05T00:00 | 14483 | 132 | -63.5 | |||
| 2013-04-05T00:00 | 14624 | 129 | -62.9 | |||
| 2013-04-05T00:00 | 14768 | 126 | -63.5 | |||
| 2013-04-05T00:00 | 14866 | 124 | -61.3 | |||
| 2013-04-05T00:00 | 14967 | 122 | -60.7 | |||
| 2013-04-05T00:00 | 15333 | 115 | -61.3 | -69.3 | ||
| 2013-04-05T00:00 | 15387 | 114 | -61.5 | |||
| 2013-04-05T00:00 | 15839 | 106 | -59.1 | |||
| 2013-04-05T00:00 | 16018 | 103 | -59.1 | |||
| 2013-04-05T00:00 | 16210 | 100 | -60.1 | 305 | 18 | |
| 2013-04-05T00:00 | 16444 | 96 | -61.5 | |||
| 2013-04-05T00:00 | 17307 | 83 | -59.7 | |||
| 2013-04-05T00:00 | 18340 | 70 | -63.5 | |||
| 2013-04-05T00:00 | 18420 | 70 | -62.7 | 300 | 18 | |
| 2013-04-05T00:00 | 18744 | 66 | -62.7 | |||
| 2013-04-05T00:00 | 18992 | 63 | -58.7 | |||
| 2013-04-05T00:00 | 19606 | 57 | -61.5 | |||
| 2013-04-05T00:00 | 19714 | 56 | -59.3 | |||
| 2013-04-05T00:00 | 20087 | 53 | -59.9 | |||
| 2013-04-05T00:00 | 20350 | 51 | -56.7 | |||
| 2013-04-05T00:00 | 20520 | 50 | -57.3 | 285 | 11 | |
| 2013-04-05T00:00 | 21209 | 44 | -59.5 | |||
| 2013-04-05T00:00 | 21539 | 42 | -57.9 | |||
| 2013-04-05T00:00 | 22276 | 37 | -57.9 | |||
| 2013-04-05T00:00 | 22497 | 36 | -55.9 | |||
| 2013-04-05T00:00 | 23750 | 30 | -56.7 | 345 | 6 | |
| 2013-04-05T00:00 | 24440 | 26 | -56.5 | |||
| 2013-04-05T00:00 | 24857 | 25 | -51.9 | |||
| 2013-04-05T00:00 | 26350 | 20 | -52.3 | 265 | 9 | |
| 2013-04-05T00:00 | 26579 | 19 | -52.9 | -85.9 | ||
| 2013-04-05T00:00 | 27245 | 17 | -53.5 | |||
| 2013-04-05T00:00 | 27510 | 16 | -51.5 | |||
| 2013-04-05T00:00 | 27828 | 15 | -51.5 | |||
| 2013-04-05T00:00 | 28036 | 15 | -47.9 | |||
| 2013-04-05T00:00 | 28522 | 14 | -48.9 | |||
| 2013-04-05T00:00 | 29151 | 13 | -45.5 | |||
| 2013-04-05T00:00 | 29681 | 12 | -46.9 | |||
| 2013-04-05T00:00 | 30138 | 11 | -45.7 | |||
| 2013-04-05T00:00 | 30900 | 10 | -46.7 | 260 | 11 | |
| 2013-04-05T00:00 | 31524 | 9 | -46.5 | |||
| 2013-04-05T00:00 | 32058 | 8 | -42.7 | |||
| 2013-04-05T00:00 | 32304 | 8 | -39.5 | |||
| 2013-04-05T00:00 | 32650 | 7 | -38.9 | -75.9 | ||
| 2013-04-05T12:00 | 53 | 1000 | ||||
| 2013-04-05T12:00 | 732 | 925 | ||||
| 2013-04-05T12:00 | 1457 | 850 | ||||
| 2013-04-05T12:00 | 1711 | 825 | 12.4 | -7.6 | ||
| 2013-04-05T12:00 | 1864 | 810 | 14.2 | -9.8 | ||
| 2013-04-05T12:00 | 2138 | 784 | 13.8 | -12.2 | ||
| 2013-04-05T12:00 | 3077 | 700 | 5.2 | -15.8 | 290 | 5 |
| 2013-04-05T12:00 | 3124 | 696 | 4.8 | -16.2 | ||
| 2013-04-05T12:00 | 4243 | 605 | -3.9 | -24.9 | ||
| 2013-04-05T12:00 | 4888 | 557 | -8.3 | -31.3 | ||
| 2013-04-05T12:00 | 5386 | 522 | -12.1 | -22.1 | ||
| 2013-04-05T12:00 | 5720 | 500 | -14.3 | -26.3 | 255 | 17 |
| 2013-04-05T12:00 | 5857 | 491 | -15.1 | -27.1 | ||
| 2013-04-05T12:00 | 6264 | 465 | -18.3 | -29.3 | ||
| 2013-04-05T12:00 | 6639 | 442 | -21.1 | -28.1 | ||
| 2013-04-05T12:00 | 7118 | 414 | -24.1 | -31.1 | ||
| 2013-04-05T12:00 | 7370 | 400 | -26.3 | -30.9 | 245 | 19 |
| 2013-04-05T12:00 | 7388 | 399 | -26.3 | -30.8 | ||
| 2013-04-05T12:00 | 7700 | 382 | -28.7 | -32.8 | ||
| 2013-04-05T12:00 | 9380 | 300 | -43.1 | -47.6 | 255 | 22 |
| 2013-04-05T12:00 | 10580 | 250 | -53.9 | -58.7 | 260 | 26 |
| 2013-04-05T12:00 | 11356 | 221 | -61.1 | -65.9 | ||
| 2013-04-05T12:00 | 11980 | 200 | -65.5 | 265 | 31 | |
| 2013-04-05T12:00 | 12922 | 171 | -69.1 | |||
| 2013-04-05T12:00 | 13136 | 165 | -66.9 | |||
| 2013-04-05T12:00 | 13247 | 162 | -66.7 | |||
| 2013-04-05T12:00 | 13555 | 154 | -63.1 | |||
| 2013-04-05T12:00 | 13710 | 150 | -63.1 | 280 | 28 | |
| 2013-04-05T12:00 | 14002 | 143 | -64.1 | |||
| 2013-04-05T12:00 | 14132 | 140 | -62.7 | |||
| 2013-04-05T12:00 | 14266 | 137 | -60.1 | |||
| 2013-04-05T12:00 | 14451 | 133 | -58.9 | |||
| 2013-04-05T12:00 | 14642 | 129 | -59.5 | |||
| 2013-04-05T12:00 | 15246 | 117 | -63.1 | |||
| 2013-04-05T12:00 | 15681 | 109 | -62.5 | |||
| 2013-04-05T12:00 | 15912 | 105 | -61.1 | |||
| 2013-04-05T12:00 | 16220 | 100 | -62.3 | 280 | 22 | |
| 2013-04-05T12:00 | 16653 | 93 | -63.1 | |||
| 2013-04-05T12:00 | 17007 | 88 | -61.1 | |||
| 2013-04-05T12:00 | 17286 | 84 | -63.1 | |||
| 2013-04-05T12:00 | 18430 | 70 | -60.7 | 295 | 14 | |
| 2013-04-05T12:00 | 18943 | 64 | -64.5 | |||
| 2013-04-05T12:00 | 19186 | 61 | -61.1 | |||
| 2013-04-05T12:00 | 19980 | 54 | -58.1 | |||
| 2013-04-05T12:00 | 20480 | 50 | -60.9 | |||
| 2013-04-05T12:00 | 20520 | 50 | -60.7 | 290 | 11 | |
| 2013-04-05T12:00 | 20866 | 47 | -59.3 | |||
| 2013-04-05T12:00 | 21149 | 45 | -60.5 | |||
| 2013-04-05T12:00 | 21460 | 43 | -58.5 | |||
| 2013-04-05T12:00 | 21727 | 41 | -59.5 | |||
| 2013-04-05T12:00 | 22219 | 38 | -55.7 | |||
| 2013-04-05T12:00 | 22719 | 35 | -57.9 | |||
| 2013-04-05T12:00 | 22809 | 34 | -56.7 | |||
| 2013-04-05T12:00 | 23357 | 31 | -59.3 | |||
| 2013-04-05T12:00 | 23639 | 30 | -57.3 | |||
| 2013-04-05T12:00 | 23730 | 30 | -57.5 | 335 | 7 | |
| 2013-04-05T12:00 | 24031 | 28 | -57.9 | |||
| 2013-04-05T12:00 | 25147 | 24 | -52.5 | |||
| 2013-04-05T12:00 | 26320 | 20 | -51.9 | 310 | 5 | |
| 2013-04-05T12:00 | 26754 | 18 | -52.1 | |||
| 2013-04-05T12:00 | 27296 | 17 | -49.9 | |||
| 2013-04-05T12:00 | 28269 | 14 | -52.9 | |||
| 2013-04-05T12:00 | 28537 | 14 | -49.1 | |||
| 2013-04-05T12:00 | 30334 | 10 | -47.5 | |||
| 2013-04-05T12:00 | 30713 | 10 | -44.1 | |||
| 2013-04-05T12:00 | 30860 | 10 | -44.5 | 275 | 12 | |
| 2013-04-05T12:00 | 31273 | 9 | -44.7 | -61.7 | ||
| 2013-04-06T00:00 | 660 | 925 | ||||
| 2013-04-06T00:00 | 1389 | 850 | ||||
| 2013-04-06T00:00 | 1684 | 821 | 20.0 | -10.0 | ||
| 2013-04-06T00:00 | 2753 | 723 | 9.6 | -12.4 | ||
| 2013-04-06T00:00 | 3026 | 700 | 7.6 | -13.4 | 280 | 3 |
| 2013-04-06T00:00 | 4528 | 580 | -6.7 | -16.7 | ||
| 2013-04-06T00:00 | 5409 | 517 | -14.7 | -21.7 | ||
| 2013-04-06T00:00 | 5670 | 500 | -16.7 | -25.7 | 255 | 17 |
| 2013-04-06T00:00 | 6020 | 477 | -19.9 | -27.9 | ||
| 2013-04-06T00:00 | 6192 | 466 | -21.5 | -28.5 | ||
| 2013-04-06T00:00 | 6432 | 451 | -23.3 | -29.3 | ||
| 2013-04-06T00:00 | 6579 | 442 | -24.1 | -32.1 | ||
| 2013-04-06T00:00 | 7300 | 400 | -29.9 | -37.9 | 260 | 21 |
| 2013-04-06T00:00 | 7497 | 389 | -31.7 | -39.7 | ||
| 2013-04-06T00:00 | 8783 | 323 | -40.9 | -52.9 | ||
| 2013-04-06T00:00 | 9290 | 300 | -45.5 | -57.5 | 255 | 23 |
| 2013-04-06T00:00 | 10077 | 266 | -52.5 | -62.5 | ||
| 2013-04-06T00:00 | 10249 | 259 | -52.3 | -62.3 | ||
| 2013-04-06T00:00 | 10480 | 250 | -54.3 | -64.3 | 235 | 23 |
| 2013-04-06T00:00 | 10714 | 241 | -55.3 | -65.3 | ||
| 2013-04-06T00:00 | 11640 | 208 | -60.5 | -69.5 | ||
| 2013-04-06T00:00 | 11880 | 200 | -61.5 | -70.5 | 245 | 25 |
| 2013-04-06T00:00 | 11942 | 198 | -61.7 | -70.7 | ||
| 2013-04-06T00:00 | 12132 | 192 | -60.9 | -69.9 | ||
| 2013-04-06T00:00 | 12429 | 183 | -62.3 | -71.3 | ||
| 2013-04-06T00:00 | 12565 | 179 | -61.9 | -70.9 | ||
| 2013-04-06T00:00 | 12635 | 177 | -59.3 | -68.3 | ||
| 2013-04-06T00:00 | 12778 | 173 | -58.9 | -67.9 | ||
| 2013-04-06T00:00 | 12851 | 171 | -57.3 | -67.3 | ||
| 2013-04-06T00:00 | 13308 | 159 | -58.7 | -68.7 | ||
| 2013-04-06T00:00 | 13427 | 156 | -58.1 | -68.1 | ||
| 2013-04-06T00:00 | 13590 | 152 | -58.5 | -68.5 | ||
| 2013-04-06T00:00 | 13670 | 150 | -58.3 | -68.3 | 265 | 31 |
| 2013-04-06T00:00 | 13712 | 149 | -58.3 | -68.3 | ||
| 2013-04-06T00:00 | 13927 | 144 | -56.3 | -66.3 | ||
| 2013-04-06T00:00 | 14150 | 139 | -57.3 | -67.3 | ||
| 2013-04-06T00:00 | 14288 | 136 | -56.3 | -66.3 | ||
| 2013-04-06T00:00 | 14720 | 127 | -57.9 | -67.9 | ||
| 2013-04-06T00:00 | 15284 | 116 | -61.9 | -71.9 | ||
| 2013-04-06T00:00 | 15612 | 110 | -61.5 | -71.5 | ||
| 2013-04-06T00:00 | 15840 | 106 | -62.9 | -72.9 | ||
| 2013-04-06T00:00 | 16137 | 101 | -62.1 | -72.1 | ||
| 2013-04-06T00:00 | 16210 | 100 | -61.3 | -71.3 | 260 | 23 |
| 2013-04-06T00:00 | 16515 | 95 | -60.1 | -70.1 | ||
| 2013-04-06T00:00 | 17084 | 86 | -64.1 | -73.1 | ||
| 2013-04-06T00:00 | 17315 | 83 | -61.5 | -71.5 | ||
| 2013-04-06T00:00 | 17472 | 81 | -61.7 | -71.7 | ||
| 2013-04-06T00:00 | 17658 | 79 | -58.5 | -68.5 | ||
| 2013-04-06T00:00 | 18151 | 73 | -59.9 | -69.9 | ||
| 2013-04-06T00:00 | 18430 | 70 | -57.5 | -68.5 | 295 | 22 |
| 2013-04-06T00:00 | 18493 | 69 | -56.7 | -67.7 | ||
| 2013-04-06T00:00 | 19528 | 58 | -62.5 | -72.5 | ||
| 2013-04-06T00:00 | 19732 | 56 | -59.1 | -70.1 | ||
| 2013-04-06T00:00 | 20427 | 50 | -61.1 | -72.1 | ||
| 2013-04-06T00:00 | 20530 | 50 | -60.5 | -71.5 | 295 | 11 |
| 2013-04-06T00:00 | 20862 | 47 | -59.9 | -70.9 | ||
| 2013-04-06T00:00 | 21105 | 45 | -57.3 | -69.3 | ||
| 2013-04-06T00:00 | 21696 | 41 | -59.5 | -70.5 | ||
| 2013-04-06T00:00 | 21926 | 40 | -59.1 | -71.1 | ||
| 2013-04-06T00:00 | 21989 | 39 | -56.5 | -68.5 | ||
| 2013-04-06T00:00 | 22053 | 39 | -55.9 | -67.9 | ||
| 2013-04-06T00:00 | 22316 | 37 | -57.5 | -69.5 | ||
| 2013-04-06T00:00 | 22807 | 34 | -54.3 | -67.3 | ||
| 2013-04-06T00:00 | 23460 | 31 | -56.9 | -69.9 | ||
| 2013-04-06T00:00 | 23760 | 30 | -55.5 | -69.5 | 350 | 7 |
| 2013-04-06T00:00 | 23781 | 29 | -55.5 | -69.5 | ||
| 2013-04-06T00:00 | 24062 | 28 | -57.3 | -71.3 | ||
| 2013-04-06T00:00 | 24380 | 27 | -54.5 | -69.5 | ||
| 2013-04-06T00:00 | 24717 | 25 | -55.3 | -71.3 | ||
| 2013-04-06T00:00 | 24867 | 25 | -53.3 | -70.3 | ||
| 2013-04-06T00:00 | 25979 | 21 | -52.3 | -77.3 | ||
| 2013-04-06T00:00 | 26360 | 20 | -50.3 | -83.3 | 300 | 10 |
| 2013-04-06T00:00 | 26799 | 18 | -49.1 | -83.1 | ||
| 2013-04-06T00:00 | 27157 | 17 | -50.5 | -84.5 | ||
| 2013-04-06T00:00 | 27737 | 16 | -47.5 | -82.5 | ||
| 2013-04-06T00:00 | 28737 | 13 | -51.3 | -84.3 | ||
| 2013-04-06T00:00 | 29430 | 12 | -47.9 | -82.9 | ||
| 2013-04-06T00:00 | 30394 | 10 | -46.7 | -81.7 | ||
| 2013-04-06T00:00 | 30709 | 10 | -44.9 | -79.9 | ||
| 2013-04-06T00:00 | 30920 | 10 | -45.3 | -80.3 | 265 | 11 |
| 2013-04-06T00:00 | 31122 | 9 | -46.1 | -81.1 | ||
| 2013-04-06T00:00 | 31620 | 9 | -45.1 | -80.1 | ||
| 2013-04-06T12:00 | 41 | 1000 | ||||
| 2013-04-06T12:00 | 723 | 925 | ||||
| 2013-04-06T12:00 | 1452 | 850 | ||||
| 2013-04-06T12:00 | 1621 | 833 | 10.0 | -10.0 | ||
| 2013-04-06T12:00 | 1651 | 830 | 10.2 | -11.8 | ||
| 2013-04-06T12:00 | 1822 | 813 | 9.0 | -10.0 | ||
| 2013-04-06T12:00 | 3040 | 700 | -1.3 | -14.3 | 320 | 6 |
| 2013-04-06T12:00 | 3468 | 663 | -4.7 | -14.7 | ||
| 2013-04-06T12:00 | 3660 | 647 | -4.5 | -22.5 | ||
| 2013-04-06T12:00 | 4094 | 612 | -7.9 | -28.9 | ||
| 2013-04-06T12:00 | 5052 | 540 | -13.9 | -36.9 | ||
| 2013-04-06T12:00 | 5640 | 500 | -19.1 | -39.1 | 310 | 17 |
| 2013-04-06T12:00 | 5987 | 477 | -22.3 | -41.3 | ||
| 2013-04-06T12:00 | 6365 | 453 | -23.1 | -43.1 | ||
| 2013-04-06T12:00 | 7104 | 409 | -27.7 | -44.7 | ||
| 2013-04-06T12:00 | 7260 | 400 | -29.3 | -46.3 | 300 | 26 |
| 2013-04-06T12:00 | 9250 | 300 | -46.1 | -58.1 | 290 | 31 |
| 2013-04-06T12:00 | 10430 | 250 | -57.1 | -67.1 | 285 | 33 |
| 2013-04-06T12:00 | 11198 | 221 | -62.7 | -71.7 | ||
| 2013-04-06T12:00 | 11692 | 204 | -60.7 | -69.7 | ||
| 2013-04-06T12:00 | 11820 | 200 | -61.5 | -70.5 | 280 | 31 |
| 2013-04-06T12:00 | 11945 | 196 | -61.7 | -70.7 | ||
| 2013-04-06T12:00 | 12106 | 191 | -59.1 | -68.1 | ||
| 2013-04-06T12:00 | 12306 | 185 | -58.1 | -67.1 | ||
| 2013-04-06T12:00 | 12622 | 176 | -54.5 | -64.5 | ||
| 2013-04-06T12:00 | 13034 | 165 | -54.7 | -64.7 | ||
| 2013-04-06T12:00 | 13191 | 161 | -52.5 | -62.5 | ||
| 2013-04-06T12:00 | 13435 | 155 | -53.3 | -63.3 | ||
| 2013-04-06T12:00 | 13650 | 150 | -51.7 | -62.7 | 290 | 24 |
| 2013-04-06T12:00 | 13693 | 149 | -51.5 | -62.5 | ||
| 2013-04-06T12:00 | 14815 | 125 | -57.3 | -67.3 | ||
| 2013-04-06T12:00 | 15449 | 113 | -58.7 | -68.7 | ||
| 2013-04-06T12:00 | 15733 | 108 | -58.1 | -68.1 | ||
| 2013-04-06T12:00 | 16220 | 100 | -61.7 | -70.7 | 260 | 15 |
| 2013-04-06T12:00 | 16758 | 91 | -64.3 | -73.3 | ||
| 2013-04-06T12:00 | 16914 | 89 | -63.1 | -72.1 | ||
| 2013-04-06T12:00 | 16991 | 88 | -58.1 | -68.1 | ||
| 2013-04-06T12:00 | 17289 | 84 | -59.5 | -69.5 | ||
| 2013-04-06T12:00 | 18017 | 74 | -56.3 | -66.3 | ||
| 2013-04-06T12:00 | 18450 | 70 | -58.7 | -68.7 | 305 | 11 |
| 2013-04-06T12:00 | 19007 | 64 | -61.9 | -71.9 | ||
| 2013-04-06T12:00 | 19134 | 62 | -61.3 | -71.3 | ||
| 2013-04-06T12:00 | 19245 | 61 | -56.3 | -66.3 | ||
| 2013-04-06T12:00 | 20326 | 51 | -62.9 | -71.9 | ||
| 2013-04-06T12:00 | 20550 | 50 | -60.9 | -70.9 | 285 | 12 |
| 2013-04-06T12:00 | 20964 | 46 | -57.1 | -67.1 | ||
| 2013-04-06T12:00 | 21583 | 42 | -59.9 | -69.9 | ||
| 2013-04-06T12:00 | 22138 | 38 | -57.9 | -67.9 | ||
| 2013-04-06T12:00 | 22967 | 34 | -58.5 | -68.5 | ||
| 2013-04-06T12:00 | 23098 | 33 | -56.5 | -67.5 | ||
| 2013-04-06T12:00 | 23430 | 31 | -55.7 | -66.7 | ||
| 2013-04-06T12:00 | 23760 | 30 | -56.3 | -67.3 | 345 | 4 |
| 2013-04-06T12:00 | 23845 | 29 | -56.7 | -67.7 | ||
| 2013-04-06T12:00 | 23953 | 29 | -55.7 | -66.7 | ||
| 2013-04-06T12:00 | 24592 | 26 | -57.9 | -68.9 | ||
| 2013-04-06T12:00 | 24738 | 25 | -55.5 | -66.5 | ||
| 2013-04-06T12:00 | 25556 | 22 | -54.9 | -66.9 | ||
| 2013-04-06T12:00 | 26123 | 20 | -49.3 | -63.3 | ||
| 2013-04-06T12:00 | 26360 | 20 | -50.1 | -64.1 | 265 | 5 |
| 2013-04-06T12:00 | 27300 | 17 | -52.1 | -66.1 | ||
| 2013-04-06T12:00 | 27529 | 16 | -50.5 | -65.5 | ||
| 2013-04-06T12:00 | 27888 | 15 | -51.5 | -66.5 | ||
| 2013-04-06T12:00 | 28313 | 14 | -49.3 | -66.3 | ||
| 2013-04-06T12:00 | 28628 | 14 | -51.3 | -67.3 | ||
| 2013-04-06T12:00 | 29106 | 13 | -50.3 | -68.3 | ||
| 2013-04-06T12:00 | 30193 | 11 | -46.7 | -67.7 | ||
| 2013-04-06T12:00 | 30437 | 10 | -44.7 | -66.7 | ||
| 2013-04-06T12:00 | 30900 | 10 | -45.1 | -68.1 | 245 | 11 |
| 2013-04-06T12:00 | 31826 | 8 | -46.5 | -73.5 | ||
| 2013-04-07T00:00 | 36 | 1000 | ||||
| 2013-04-07T00:00 | 713 | 925 | ||||
| 2013-04-07T00:00 | 1435 | 850 | ||||
| 2013-04-07T00:00 | 1672 | 826 | 15.4 | -10.6 | ||
| 2013-04-07T00:00 | 2398 | 757 | 8.2 | -10.8 | ||
| 2013-04-07T00:00 | 3045 | 700 | 2.4 | -12.6 | 295 | 3 |
| 2013-04-07T00:00 | 3348 | 674 | -0.5 | -12.5 | ||
| 2013-04-07T00:00 | 4018 | 619 | -7.1 | -13.1 | ||
| 2013-04-07T00:00 | 4665 | 569 | -12.7 | -14.7 | ||
| 2013-04-07T00:00 | 5033 | 542 | -14.7 | -16.1 | ||
| 2013-04-07T00:00 | 5533 | 507 | -18.3 | -20.8 | ||
| 2013-04-07T00:00 | 5650 | 500 | -19.3 | -22.2 | 260 | 18 |
| 2013-04-07T00:00 | 6357 | 454 | -25.3 | -28.9 | ||
| 2013-04-07T00:00 | 6453 | 448 | -26.1 | -32.1 | ||
| 2013-04-07T00:00 | 6815 | 426 | -27.3 | -38.3 | ||
| 2013-04-07T00:00 | 7054 | 412 | -29.1 | -41.1 | ||
| 2013-04-07T00:00 | 7159 | 406 | -28.9 | -40.9 | ||
| 2013-04-07T00:00 | 7270 | 400 | -29.9 | -41.9 | 275 | 24 |
| 2013-04-07T00:00 | 8104 | 355 | -37.9 | -45.9 | ||
| 2013-04-07T00:00 | 8440 | 338 | -39.9 | -46.9 | ||
| 2013-04-07T00:00 | 9240 | 300 | -47.1 | -53.1 | 280 | 31 |
| 2013-04-07T00:00 | 9396 | 293 | -47.3 | -53.3 | ||
| 2013-04-07T00:00 | 10430 | 250 | -55.5 | -61.5 | 285 | 40 |
| 2013-04-07T00:00 | 10741 | 238 | -58.3 | -64.3 | ||
| 2013-04-07T00:00 | 11036 | 227 | -60.5 | -66.5 | ||
| 2013-04-07T00:00 | 11287 | 218 | -61.1 | -67.1 | ||
| 2013-04-07T00:00 | 11820 | 200 | -64.9 | 290 | 32 | |
| 2013-04-07T00:00 | 11974 | 195 | -64.3 | |||
| 2013-04-07T00:00 | 12134 | 190 | -61.3 | |||
| 2013-04-07T00:00 | 12266 | 186 | -60.1 | |||
| 2013-04-07T00:00 | 12540 | 178 | -58.7 | |||
| 2013-04-07T00:00 | 12718 | 173 | -59.7 | |||
| 2013-04-07T00:00 | 12864 | 169 | -59.5 | |||
| 2013-04-07T00:00 | 13208 | 160 | -55.7 | |||
| 2013-04-07T00:00 | 13620 | 150 | -56.1 | 275 | 23 | |
| 2013-04-07T00:00 | 14334 | 134 | -56.5 | |||
| 2013-04-07T00:00 | 14526 | 130 | -55.3 | |||
| 2013-04-07T00:00 | 14676 | 127 | -52.5 | |||
| 2013-04-07T00:00 | 15423 | 113 | -54.9 | |||
| 2013-04-07T00:00 | 15828 | 106 | -58.1 | |||
| 2013-04-07T00:00 | 16200 | 100 | -58.1 | 270 | 20 | |
| 2013-04-07T00:00 | 17215 | 85 | -57.3 | |||
| 2013-04-07T00:00 | 18450 | 70 | -60.1 | 260 | 8 | |
| 2013-04-07T00:00 | 18750 | 66 | -61.3 | |||
| 2013-04-07T00:00 | 18882 | 65 | -58.3 | |||
| 2013-04-07T00:00 | 19431 | 59 | -60.5 | |||
| 2013-04-07T00:00 | 19568 | 58 | -59.5 | |||
| 2013-04-07T00:00 | 19654 | 57 | -56.9 | |||
| 2013-04-07T00:00 | 20131 | 53 | -56.7 | |||
| 2013-04-07T00:00 | 20494 | 50 | -58.9 | |||
| 2013-04-07T00:00 | 20560 | 50 | -58.9 | 245 | 8 | |
| 2013-04-07T00:00 | 20936 | 47 | -56.9 | |||
| 2013-04-07T00:00 | 21393 | 43 | -58.9 | |||
| 2013-04-07T00:00 | 21687 | 41 | -57.3 | |||
| 2013-04-07T00:00 | 22522 | 36 | -58.7 | |||
| 2013-04-07T00:00 | 22661 | 35 | -56.1 | |||
| 2013-04-07T00:00 | 23064 | 33 | -55.3 | |||
| 2013-04-07T00:00 | 23760 | 30 | -57.9 | |||
| 2013-04-07T00:00 | 23790 | 30 | -57.9 | 255 | 4 | |
| 2013-04-07T00:00 | 24250 | 27 | -54.1 | |||
| 2013-04-07T00:00 | 24578 | 26 | -55.7 | |||
| 2013-04-07T00:00 | 24799 | 25 | -52.9 | |||
| 2013-04-07T00:00 | 25600 | 22 | -53.1 | |||
| 2013-04-07T00:00 | 25923 | 21 | -49.7 | |||
| 2013-04-07T00:00 | 26201 | 20 | -51.3 | |||
| 2013-04-07T00:00 | 26328 | 20 | -49.7 | |||
| 2013-04-07T00:00 | 26400 | 20 | -50.1 | 255 | 7 | |
| 2013-04-07T00:00 | 27230 | 17 | -51.7 | |||
| 2013-04-07T00:00 | 28582 | 14 | -48.5 | |||
| 2013-04-07T00:00 | 28815 | 13 | -49.7 | |||
| 2013-04-07T00:00 | 30736 | 10 | -46.9 | |||
| 2013-04-07T00:00 | 30950 | 10 | -46.1 | 265 | 17 | |
| 2013-04-07T00:00 | 31506 | 9 | -43.9 | |||
| 2013-04-07T00:00 | 31957 | 8 | -44.5 | -61.5 | ||
| 2013-04-07T12:00 | 36 | 1000 | ||||
| 2013-04-07T12:00 | 710 | 925 | ||||
| 2013-04-07T12:00 | 1430 | 850 | ||||
| 2013-04-07T12:00 | 1790 | 814 | 6.4 | 0.4 | ||
| 2013-04-07T12:00 | 2107 | 783 | 6.2 | -3.8 | ||
| 2013-04-07T12:00 | 2403 | 755 | 3.6 | -5.4 | ||
| 2013-04-07T12:00 | 2478 | 748 | 3.8 | -6.2 | ||
| 2013-04-07T12:00 | 3016 | 700 | -0.9 | -8.9 | 280 | 10 |
| 2013-04-07T12:00 | 3576 | 652 | -5.9 | -10.9 | ||
| 2013-04-07T12:00 | 3807 | 633 | -6.5 | -13.5 | ||
| 2013-04-07T12:00 | 4469 | 581 | -10.7 | -20.7 | ||
| 2013-04-07T12:00 | 5610 | 500 | -20.9 | -25.9 | 285 | 13 |
| 2013-04-07T12:00 | 5654 | 497 | -21.3 | -26.3 | ||
| 2013-04-07T12:00 | 5926 | 479 | -22.1 | -28.1 | ||
| 2013-04-07T12:00 | 6396 | 449 | -25.7 | -36.7 | ||
| 2013-04-07T12:00 | 6690 | 431 | -28.1 | -41.1 | ||
| 2013-04-07T12:00 | 6977 | 414 | -29.1 | -43.1 | ||
| 2013-04-07T12:00 | 7220 | 400 | -31.3 | -43.3 | 280 | 23 |
| 2013-04-07T12:00 | 8772 | 319 | -45.1 | -51.1 | ||
| 2013-04-07T12:00 | 8856 | 315 | -45.1 | -51.1 | ||
| 2013-04-07T12:00 | 9180 | 300 | -47.7 | -54.7 | 270 | 36 |
| 2013-04-07T12:00 | 9561 | 283 | -50.9 | -57.9 | ||
| 2013-04-07T12:00 | 10370 | 250 | -54.5 | -61.5 | 270 | 33 |
| 2013-04-07T12:00 | 10709 | 237 | -56.7 | -63.7 | ||
| 2013-04-07T12:00 | 11564 | 207 | -56.7 | -63.7 | ||
| 2013-04-07T12:00 | 11718 | 202 | -57.5 | -64.5 | ||
| 2013-04-07T12:00 | 11780 | 200 | -56.7 | 280 | 32 | |
| 2013-04-07T12:00 | 11940 | 195 | -57.1 | |||
| 2013-04-07T12:00 | 12038 | 192 | -55.9 | |||
| 2013-04-07T12:00 | 12377 | 182 | -56.5 | |||
| 2013-04-07T12:00 | 12412 | 181 | -55.7 | |||
| 2013-04-07T12:00 | 12808 | 170 | -57.7 | |||
| 2013-04-07T12:00 | 13512 | 152 | -57.9 | |||
| 2013-04-07T12:00 | 13600 | 150 | -58.5 | 270 | 26 | |
| 2013-04-07T12:00 | 14397 | 132 | -60.7 | |||
| 2013-04-07T12:00 | 14637 | 127 | -59.7 | |||
| 2013-04-07T12:00 | 14686 | 126 | -58.5 | |||
| 2013-04-07T12:00 | 14889 | 122 | -57.5 | |||
| 2013-04-07T12:00 | 15207 | 116 | -56.9 | |||
| 2013-04-07T12:00 | 15372 | 113 | -57.5 | |||
| 2013-04-07T12:00 | 15428 | 112 | -55.9 | |||
| 2013-04-07T12:00 | 15898 | 104 | -56.3 | |||
| 2013-04-07T12:00 | 16150 | 100 | -55.3 | 265 | 22 | |
| 2013-04-07T12:00 | 17089 | 86 | -57.7 | |||
| 2013-04-07T12:00 | 17388 | 82 | -57.1 | |||
| 2013-04-07T12:00 | 17474 | 81 | -54.1 | |||
| 2013-04-07T12:00 | 17683 | 78 | -52.7 | |||
| 2013-04-07T12:00 | 18420 | 70 | -56.3 | 230 | 6 | |
| 2013-04-07T12:00 | 18867 | 65 | -59.1 | |||
| 2013-04-07T12:00 | 19516 | 58 | -57.1 | |||
| 2013-04-07T12:00 | 19947 | 54 | -59.3 | |||
| 2013-04-07T12:00 | 20051 | 54 | -57.9 | |||
| 2013-04-07T12:00 | 20540 | 50 | -58.5 | 270 | 5 | |
| 2013-04-07T12:00 | 20680 | 48 | -58.3 | |||
| 2013-04-07T12:00 | 21129 | 45 | -60.9 | |||
| 2013-04-07T12:00 | 21338 | 44 | -58.1 | |||
| 2013-04-07T12:00 | 22272 | 37 | -59.5 | |||
| 2013-04-07T12:00 | 22508 | 36 | -57.3 | |||
| 2013-04-07T12:00 | 22718 | 35 | -57.9 | |||
| 2013-04-07T12:00 | 23163 | 32 | -55.5 | |||
| 2013-04-07T12:00 | 23683 | 30 | -58.3 | |||
| 2013-04-07T12:00 | 23760 | 30 | -58.1 | 310 | 4 | |
| 2013-04-07T12:00 | 24195 | 28 | -55.9 | |||
| 2013-04-07T12:00 | 24379 | 27 | -56.5 | |||
| 2013-04-07T12:00 | 24816 | 25 | -52.7 | |||
| 2013-04-07T12:00 | 25508 | 22 | -54.7 | |||
| 2013-04-07T12:00 | 26192 | 20 | -51.1 | |||
| 2013-04-07T12:00 | 26350 | 20 | -52.3 | 305 | 8 | |
| 2013-04-07T12:00 | 26748 | 18 | -53.5 | |||
| 2013-04-07T12:00 | 26921 | 18 | -52.3 | |||
| 2013-04-07T12:00 | 27099 | 17 | -53.5 | |||
| 2013-04-07T12:00 | 27245 | 17 | -51.9 | |||
| 2013-04-07T12:00 | 27953 | 15 | -50.5 | |||
| 2013-04-07T12:00 | 28427 | 14 | -51.7 | |||
| 2013-04-07T12:00 | 29449 | 12 | -47.3 | |||
| 2013-04-07T12:00 | 30548 | 10 | -46.5 | -81.5 | ||
| 2013-04-08T00:00 | 672 | 925 | ||||
| 2013-04-08T00:00 | 1393 | 850 | ||||
| 2013-04-08T00:00 | 1693 | 820 | 15.2 | -8.8 | ||
| 2013-04-08T00:00 | 1817 | 808 | 13.8 | -10.2 | ||
| 2013-04-08T00:00 | 3003 | 700 | 2.4 | -11.6 | 265 | 10 |
| 2013-04-08T00:00 | 3283 | 676 | 0.2 | -13.8 | ||
| 2013-04-08T00:00 | 3582 | 651 | -2.9 | -12.9 | ||
| 2013-04-08T00:00 | 3753 | 637 | -3.5 | -14.5 | ||
| 2013-04-08T00:00 | 4615 | 570 | -11.3 | -18.3 | ||
| 2013-04-08T00:00 | 4887 | 550 | -13.1 | -24.1 | ||
| 2013-04-08T00:00 | 5281 | 522 | -16.3 | -25.3 | ||
| 2013-04-08T00:00 | 5514 | 506 | -18.3 | -31.3 | ||
| 2013-04-08T00:00 | 5610 | 500 | -19.1 | -32.1 | 275 | 22 |
| 2013-04-08T00:00 | 6065 | 470 | -23.3 | -33.3 | ||
| 2013-04-08T00:00 | 6429 | 447 | -26.3 | -36.3 | ||
| 2013-04-08T00:00 | 6658 | 433 | -28.1 | -40.1 | ||
| 2013-04-08T00:00 | 7133 | 405 | -31.7 | -40.7 | ||
| 2013-04-08T00:00 | 7230 | 400 | -32.7 | -41.7 | 270 | 21 |
| 2013-04-08T00:00 | 8113 | 352 | -40.7 | -48.7 | ||
| 2013-04-08T00:00 | 8589 | 328 | -43.7 | -50.7 | ||
| 2013-04-08T00:00 | 9180 | 300 | -49.1 | -56.1 | 285 | 40 |
| 2013-04-08T00:00 | 9790 | 273 | -54.5 | -61.5 | ||
| 2013-04-08T00:00 | 10350 | 250 | -55.7 | -62.7 | 275 | 49 |
| 2013-04-08T00:00 | 10636 | 239 | -55.9 | -62.9 | ||
| 2013-04-08T00:00 | 11018 | 225 | -57.5 | -64.5 | ||
| 2013-04-08T00:00 | 11424 | 211 | -56.3 | -63.3 | ||
| 2013-04-08T00:00 | 11577 | 206 | -53.9 | -61.9 | ||
| 2013-04-08T00:00 | 11770 | 200 | -54.1 | -62.1 | 285 | 30 |
| 2013-04-08T00:00 | 11802 | 199 | -54.1 | -62.1 | ||
| 2013-04-08T00:00 | 12232 | 186 | -56.7 | -64.7 | ||
| 2013-04-08T00:00 | 12335 | 183 | -55.5 | -63.5 | ||
| 2013-04-08T00:00 | 12656 | 174 | -54.9 | -62.9 | ||
| 2013-04-08T00:00 | 13070 | 163 | -56.7 | -64.7 | ||
| 2013-04-08T00:00 | 13600 | 150 | -56.5 | -65.5 | 280 | 33 |
| 2013-04-08T00:00 | 14034 | 140 | -58.7 | -67.7 | ||
| 2013-04-08T00:00 | 14124 | 138 | -58.1 | -67.1 | ||
| 2013-04-08T00:00 | 14170 | 137 | -56.7 | -65.7 | ||
| 2013-04-08T00:00 | 14502 | 130 | -56.1 | -65.1 | ||
| 2013-04-08T00:00 | 14601 | 128 | -54.7 | -63.7 | ||
| 2013-04-08T00:00 | 14907 | 122 | -54.5 | -63.5 | ||
| 2013-04-08T00:00 | 15564 | 110 | -57.1 | -66.1 | ||
| 2013-04-08T00:00 | 16170 | 100 | -59.5 | -68.5 | 245 | 15 |
| 2013-04-08T00:00 | 16522 | 94 | -60.3 | -69.3 | ||
| 2013-04-08T00:00 | 16760 | 91 | -54.7 | -64.7 | ||
| 2013-04-08T00:00 | 17268 | 84 | -56.7 | -66.7 | ||
| 2013-04-08T00:00 | 17547 | 80 | -54.1 | -64.1 | ||
| 2013-04-08T00:00 | 18430 | 70 | -58.1 | -68.1 | 260 | 14 |
| 2013-04-08T00:00 | 18742 | 66 | -59.7 | -69.7 | ||
| 2013-04-08T00:00 | 18799 | 66 | -58.9 | -68.9 | ||
| 2013-04-08T00:00 | 18876 | 65 | -55.3 | -65.3 | ||
| 2013-04-08T00:00 | 19054 | 63 | -54.7 | -64.7 | ||
| 2013-04-08T00:00 | 20560 | 50 | -61.3 | -71.3 | 265 | 9 |
| 2013-04-08T00:00 | 20711 | 48 | -58.7 | -68.7 | ||
| 2013-04-08T00:00 | 21602 | 42 | -60.7 | -70.7 | ||
| 2013-04-08T00:00 | 21782 | 41 | -56.3 | -67.3 | ||
| 2013-04-08T00:00 | 22277 | 38 | -57.9 | -68.9 | ||
| 2013-04-08T00:00 | 22549 | 36 | -55.7 | -66.7 | ||
| 2013-04-08T00:00 | 22889 | 34 | -56.1 | -67.1 | ||
| 2013-04-08T00:00 | 23269 | 32 | -54.1 | -66.1 | ||
| 2013-04-08T00:00 | 23780 | 30 | -55.5 | -67.5 | 235 | 7 |
| 2013-04-08T00:00 | 24496 | 26 | -56.3 | -69.3 | ||
| 2013-04-08T00:00 | 25122 | 24 | -52.1 | -67.1 | ||
| 2013-04-08T00:00 | 26380 | 20 | -55.3 | -71.3 | 245 | 14 |
| 2013-04-08T00:00 | 26412 | 19 | -55.3 | -71.3 | ||
| 2013-04-08T00:00 | 26709 | 19 | -52.1 | -72.1 | ||
| 2013-04-08T00:00 | 27094 | 17 | -51.5 | -74.5 | ||
| 2013-04-08T00:00 | 27619 | 16 | -53.5 | -77.5 | ||
| 2013-04-08T00:00 | 28591 | 14 | -49.5 | -83.5 | ||
| 2013-04-08T00:00 | 29911 | 11 | -49.9 | -83.9 | ||
| 2013-04-08T00:00 | 30566 | 10 | -46.1 | -81.1 | ||
| 2013-04-08T00:00 | 30900 | 10 | -46.3 | -81.3 | 260 | 24 |
| 2013-04-08T00:00 | 31828 | 8 | -43.7 | -79.7 | ||
| 2013-04-08T12:00 | 661 | 925 | ||||
| 2013-04-08T12:00 | 1378 | 850 | ||||
| 2013-04-08T12:00 | 1660 | 822 | 6.8 | -2.2 | ||
| 2013-04-08T12:00 | 1740 | 814 | 7.8 | -6.2 | ||
| 2013-04-08T12:00 | 1831 | 805 | 9.0 | -5.0 | ||
| 2013-04-08T12:00 | 2039 | 785 | 9.8 | -8.2 | ||
| 2013-04-08T12:00 | 2978 | 700 | 2.6 | -14.4 | 255 | 2 |
| 2013-04-08T12:00 | 3082 | 691 | 1.8 | -15.2 | ||
| 2013-04-08T12:00 | 3619 | 646 | -2.3 | -14.3 | ||
| 2013-04-08T12:00 | 4446 | 581 | -10.1 | -17.1 | ||
| 2013-04-08T12:00 | 4687 | 563 | -11.9 | -17.9 | ||
| 2013-04-08T12:00 | 4796 | 555 | -12.3 | -20.3 | ||
| 2013-04-08T12:00 | 5590 | 500 | -19.1 | -27.1 | 245 | 15 |
| 2013-04-08T12:00 | 5906 | 479 | -22.1 | -28.1 | ||
| 2013-04-08T12:00 | 6329 | 452 | -24.9 | -31.9 | ||
| 2013-04-08T12:00 | 7166 | 402 | -32.5 | -37.1 | ||
| 2013-04-08T12:00 | 7200 | 400 | -32.7 | -37.2 | 240 | 21 |
| 2013-04-08T12:00 | 8646 | 324 | -43.5 | -47.7 | ||
| 2013-04-08T12:00 | 9170 | 300 | -48.3 | -52.9 | 250 | 30 |
| 2013-04-08T12:00 | 10190 | 256 | -57.5 | -62.3 | ||
| 2013-04-08T12:00 | 10340 | 250 | -58.5 | -63.3 | 250 | 39 |
| 2013-04-08T12:00 | 11463 | 209 | -58.5 | -63.3 | ||
| 2013-04-08T12:00 | 11584 | 205 | -58.3 | -63.2 | ||
| 2013-04-08T12:00 | 11730 | 200 | -56.9 | 250 | 28 | |
| 2013-04-08T12:00 | 11762 | 199 | -56.3 | |||
| 2013-04-08T12:00 | 11858 | 196 | -56.7 | |||
| 2013-04-08T12:00 | 11989 | 192 | -55.1 | |||
| 2013-04-08T12:00 | 12089 | 189 | -54.9 | |||
| 2013-04-08T12:00 | 12509 | 177 | -52.5 | |||
| 2013-04-08T12:00 | 12693 | 172 | -53.7 | |||
| 2013-04-08T12:00 | 12882 | 167 | -53.9 | |||
| 2013-04-08T12:00 | 13077 | 162 | -52.5 | |||
| 2013-04-08T12:00 | 13197 | 159 | -53.1 | |||
| 2013-04-08T12:00 | 13445 | 153 | -52.5 | |||
| 2013-04-08T12:00 | 13570 | 150 | -52.9 | 250 | 31 | |
| 2013-04-08T12:00 | 13788 | 145 | -53.9 | |||
| 2013-04-08T12:00 | 13922 | 142 | -53.7 | |||
| 2013-04-08T12:00 | 14437 | 131 | -55.3 | |||
| 2013-04-08T12:00 | 14736 | 125 | -54.1 | |||
| 2013-04-08T12:00 | 15050 | 119 | -55.1 | |||
| 2013-04-08T12:00 | 15379 | 113 | -55.3 | |||
| 2013-04-08T12:00 | 15784 | 106 | -57.7 | |||
| 2013-04-08T12:00 | 15904 | 104 | -56.3 | |||
| 2013-04-08T12:00 | 16160 | 100 | -56.5 | 305 | 10 | |
| 2013-04-08T12:00 | 16379 | 96 | -56.5 | |||
| 2013-04-08T12:00 | 16512 | 94 | -54.3 | |||
| 2013-04-08T12:00 | 17205 | 84 | -58.1 | |||
| 2013-04-08T12:00 | 17834 | 76 | -58.9 | |||
| 2013-04-08T12:00 | 18286 | 71 | -55.5 | |||
| 2013-04-08T12:00 | 18420 | 70 | -55.7 | 310 | 4 | |
| 2013-04-08T12:00 | 19203 | 61 | -59.9 | |||
| 2013-04-08T12:00 | 19547 | 58 | -57.5 | |||
| 2013-04-08T12:00 | 20259 | 52 | -60.9 | |||
| 2013-04-08T12:00 | 20380 | 51 | -58.1 | |||
| 2013-04-08T12:00 | 20530 | 50 | -58.9 | 245 | 10 | |
| 2013-04-08T12:00 | 21241 | 44 | -61.5 | |||
| 2013-04-08T12:00 | 21962 | 39 | -60.5 | |||
| 2013-04-08T12:00 | 22252 | 37 | -58.1 | |||
| 2013-04-08T12:00 | 23469 | 31 | -59.9 | |||
| 2013-04-08T12:00 | 23730 | 30 | -57.3 | 290 | 7 | |
| 2013-04-08T12:00 | 23772 | 29 | -56.9 | |||
| 2013-04-08T12:00 | 24255 | 27 | -58.5 | |||
| 2013-04-08T12:00 | 24417 | 26 | -56.1 | |||
| 2013-04-08T12:00 | 24706 | 25 | -56.7 | |||
| 2013-04-08T12:00 | 24907 | 24 | -55.1 | |||
| 2013-04-08T12:00 | 25467 | 22 | -55.9 | |||
| 2013-04-08T12:00 | 26310 | 20 | -54.7 | 260 | 5 | |
| 2013-04-08T12:00 | 26773 | 18 | -54.3 | |||
| 2013-04-08T12:00 | 27126 | 17 | -55.3 | |||
| 2013-04-08T12:00 | 27654 | 16 | -54.1 | |||
| 2013-04-08T12:00 | 27855 | 15 | -52.3 | |||
| 2013-04-08T12:00 | 29079 | 13 | -49.9 | |||
| 2013-04-08T12:00 | 30800 | 10 | -50.7 | 250 | 22 | |
| 2013-04-08T12:00 | 31271 | 9 | -51.1 | -71.1 | ||
| 2013-04-09T00:00 | 585 | 925 | ||||
| 2013-04-09T00:00 | 1306 | 850 | ||||
| 2013-04-09T00:00 | 1663 | 815 | 17.2 | -2.8 | ||
| 2013-04-09T00:00 | 2218 | 763 | 12.8 | -6.2 | ||
| 2013-04-09T00:00 | 2328 | 753 | 11.2 | -6.8 | ||
| 2013-04-09T00:00 | 2439 | 743 | 11.0 | -8.0 | ||
| 2013-04-09T00:00 | 2932 | 700 | 6.6 | -10.4 | 175 | 7 |
| 2013-04-09T00:00 | 3869 | 623 | -2.1 | -14.1 | ||
| 2013-04-09T00:00 | 4510 | 574 | -8.5 | -14.5 | ||
| 2013-04-09T00:00 | 4769 | 555 | -10.3 | -18.3 | ||
| 2013-04-09T00:00 | 5308 | 517 | -15.9 | -19.6 | ||
| 2013-04-09T00:00 | 5570 | 500 | -17.5 | -21.9 | 210 | 19 |
| 2013-04-09T00:00 | 7200 | 400 | -30.7 | -36.7 | 215 | 25 |
| 2013-04-09T00:00 | 8268 | 343 | -39.9 | -46.9 | ||
| 2013-04-09T00:00 | 9170 | 300 | -47.9 | -54.9 | 230 | 29 |
| 2013-04-09T00:00 | 9643 | 279 | -51.9 | -58.9 | ||
| 2013-04-09T00:00 | 9854 | 270 | -52.7 | -59.7 | ||
| 2013-04-09T00:00 | 9950 | 266 | -52.1 | -59.1 | ||
| 2013-04-09T00:00 | 10196 | 256 | -54.3 | -61.3 | ||
| 2013-04-09T00:00 | 10350 | 250 | -54.7 | -61.7 | 230 | 38 |
| 2013-04-09T00:00 | 11431 | 211 | -54.9 | -61.9 | ||
| 2013-04-09T00:00 | 11770 | 200 | -57.1 | -64.1 | 235 | 29 |
| 2013-04-09T00:00 | 11897 | 196 | -58.1 | -65.1 | ||
| 2013-04-09T00:00 | 12059 | 191 | -58.5 | -65.5 | ||
| 2013-04-09T00:00 | 12126 | 189 | -57.9 | -65.9 | ||
| 2013-04-09T00:00 | 12226 | 186 | -58.7 | -66.7 | ||
| 2013-04-09T00:00 | 12293 | 184 | -57.9 | -65.9 | ||
| 2013-04-09T00:00 | 12362 | 182 | -54.9 | -62.9 | ||
| 2013-04-09T00:00 | 12433 | 180 | -53.7 | -61.7 | ||
| 2013-04-09T00:00 | 12541 | 177 | -54.3 | -62.3 | ||
| 2013-04-09T00:00 | 12614 | 175 | -52.9 | -60.9 | ||
| 2013-04-09T00:00 | 12954 | 166 | -52.7 | -61.7 | ||
| 2013-04-09T00:00 | 13072 | 163 | -51.3 | -60.3 | ||
| 2013-04-09T00:00 | 13315 | 157 | -50.5 | -60.5 | ||
| 2013-04-09T00:00 | 13357 | 156 | -49.5 | -59.5 | ||
| 2013-04-09T00:00 | 13484 | 153 | -48.7 | -58.7 | ||
| 2013-04-09T00:00 | 13620 | 150 | -49.5 | -60.5 | 250 | 21 |
| 2013-04-09T00:00 | 13976 | 142 | -51.7 | -62.7 | ||
| 2013-04-09T00:00 | 14068 | 140 | -51.3 | -62.3 | ||
| 2013-04-09T00:00 | 14303 | 135 | -53.1 | -64.1 | ||
| 2013-04-09T00:00 | 14545 | 130 | -53.9 | -64.9 | ||
| 2013-04-09T00:00 | 14846 | 124 | -56.1 | -67.1 | ||
| 2013-04-09T00:00 | 15160 | 118 | -57.1 | -68.1 | ||
| 2013-04-09T00:00 | 15268 | 116 | -56.5 | -67.5 | ||
| 2013-04-09T00:00 | 15489 | 112 | -57.9 | -67.9 | ||
| 2013-04-09T00:00 | 15660 | 109 | -57.9 | -67.9 | ||
| 2013-04-09T00:00 | 15777 | 107 | -57.1 | -68.1 | ||
| 2013-04-09T00:00 | 15956 | 104 | -58.7 | -68.7 | ||
| 2013-04-09T00:00 | 16200 | 100 | -59.1 | -69.1 | 245 | 18 |
| 2013-04-09T00:00 | 16864 | 89 | -60.3 | -70.3 | ||
| 2013-04-09T00:00 | 16955 | 88 | -57.9 | -68.9 | ||
| 2013-04-09T00:00 | 17217 | 85 | -56.1 | -67.1 | ||
| 2013-04-09T00:00 | 17498 | 81 | -57.5 | -68.5 | ||
| 2013-04-09T00:00 | 17608 | 79 | -55.9 | -66.9 | ||
| 2013-04-09T00:00 | 18450 | 70 | -61.9 | -71.9 | 265 | 6 |
| 2013-04-09T00:00 | 18601 | 68 | -62.9 | -72.9 | ||
| 2013-04-09T00:00 | 18748 | 66 | -60.1 | -70.1 | ||
| 2013-04-09T00:00 | 19438 | 59 | -59.9 | -70.9 | ||
| 2013-04-09T00:00 | 19974 | 54 | -57.9 | -68.9 | ||
| 2013-04-09T00:00 | 20090 | 53 | -55.9 | -66.9 | ||
| 2013-04-09T00:00 | 20560 | 50 | -57.9 | -68.9 | 135 | 5 |
| 2013-04-09T00:00 | 21530 | 42 | -61.1 | -72.1 | ||
| 2013-04-09T00:00 | 21618 | 42 | -59.5 | -70.5 | ||
| 2013-04-09T00:00 | 21936 | 40 | -60.3 | -71.3 | ||
| 2013-04-09T00:00 | 22239 | 38 | -58.3 | -69.3 | ||
| 2013-04-09T00:00 | 22715 | 35 | -59.5 | -70.5 | ||
| 2013-04-09T00:00 | 22804 | 34 | -58.1 | -69.1 | ||
| 2013-04-09T00:00 | 22986 | 33 | -58.9 | -69.9 | ||
| 2013-04-09T00:00 | 23713 | 30 | -56.3 | -68.3 | ||
| 2013-04-09T00:00 | 23760 | 30 | -56.5 | -68.5 | 275 | 7 |
| 2013-04-09T00:00 | 24107 | 28 | -56.3 | -68.3 | ||
| 2013-04-09T00:00 | 24543 | 26 | -58.5 | -70.5 | ||
| 2013-04-09T00:00 | 24736 | 25 | -56.5 | -68.5 | ||
| 2013-04-09T00:00 | 25305 | 23 | -54.7 | -67.7 | ||
| 2013-04-09T00:00 | 25957 | 21 | -57.9 | -70.9 | ||
| 2013-04-09T00:00 | 26077 | 20 | -57.5 | -70.5 | ||
| 2013-04-09T00:00 | 26231 | 20 | -54.5 | -68.5 | ||
| 2013-04-09T00:00 | 26330 | 20 | -54.3 | -68.3 | 280 | 20 |
| 2013-04-09T00:00 | 26427 | 19 | -54.5 | -68.5 | ||
| 2013-04-09T00:00 | 26659 | 19 | -52.3 | -68.3 | ||
| 2013-04-09T00:00 | 27262 | 17 | -53.7 | -69.7 | ||
| 2013-04-09T00:00 | 28808 | 13 | -52.5 | -72.5 | ||
| 2013-04-09T00:00 | 29559 | 12 | -53.5 | -75.5 | ||
| 2013-04-09T00:00 | 30235 | 10 | -49.3 | -76.3 | ||
| 2013-04-09T00:00 | 30810 | 10 | -49.1 | -78.1 | 250 | 31 |
| 2013-04-09T00:00 | 31427 | 9 | -49.1 | -80.1 | ||
| 2013-04-09T00:00 | 31876 | 8 | -46.5 | -77.5 | ||
| 2013-04-09T00:00 | 32526 | 7 | -49.3 | -81.3 | ||
| 2013-04-09T12:00 | 118 | 1000 | ||||
| 2013-04-09T12:00 | 772 | 925 | ||||
| 2013-04-09T12:00 | 1471 | 850 | ||||
| 2013-04-09T12:00 | 1949 | 800 | -11.5 | -13.8 | ||
| 2013-04-09T12:00 | 2520 | 742 | -15.5 | -17.4 | ||
| 2013-04-09T12:00 | 2633 | 731 | -14.1 | -15.2 | ||
| 2013-04-09T12:00 | 2779 | 717 | -13.9 | -14.6 | ||
| 2013-04-09T12:00 | 2961 | 700 | -14.5 | -15.4 | 345 | 12 |
| 2013-04-09T12:00 | 3257 | 673 | -15.7 | -16.8 | ||
| 2013-04-09T12:00 | 3336 | 666 | -15.3 | -16.2 | ||
| 2013-04-09T12:00 | 3579 | 645 | -11.1 | -11.1 | ||
| 2013-04-09T12:00 | 3736 | 632 | -6.9 | -6.9 | ||
| 2013-04-09T12:00 | 3785 | 628 | -6.3 | -6.3 | ||
| 2013-04-09T12:00 | 3998 | 611 | -7.3 | -7.4 | ||
| 2013-04-09T12:00 | 4126 | 601 | -7.7 | -9.8 | ||
| 2013-04-09T12:00 | 4230 | 593 | -8.1 | -10.4 | ||
| 2013-04-09T12:00 | 4864 | 546 | -12.1 | -13.8 | ||
| 2013-04-09T12:00 | 5005 | 536 | -13.3 | -14.9 | ||
| 2013-04-09T12:00 | 5162 | 525 | -14.7 | -18.9 | ||
| 2013-04-09T12:00 | 5454 | 505 | -17.3 | -24.3 | ||
| 2013-04-09T12:00 | 5540 | 500 | -17.7 | -24.7 | 185 | 24 |
| 2013-04-09T12:00 | 5797 | 483 | -19.1 | -27.1 | ||
| 2013-04-09T12:00 | 7040 | 407 | -29.9 | -35.9 | ||
| 2013-04-09T12:00 | 7170 | 400 | -30.9 | -36.9 | 185 | 29 |
| 2013-04-09T12:00 | 8745 | 318 | -45.3 | -52.3 | ||
| 2013-04-09T12:00 | 9130 | 300 | -46.9 | -54.9 | 180 | 30 |
| 2013-04-09T12:00 | 9219 | 296 | -46.7 | -54.7 | ||
| 2013-04-09T12:00 | 10320 | 250 | -54.7 | -62.7 | 190 | 34 |
| 2013-04-09T12:00 | 10580 | 240 | -54.9 | -62.9 | ||
| 2013-04-09T12:00 | 10688 | 236 | -52.9 | -60.9 | ||
| 2013-04-09T12:00 | 11023 | 224 | -53.9 | -61.9 | ||
| 2013-04-09T12:00 | 11226 | 217 | -55.3 | -63.3 | ||
| 2013-04-09T12:00 | 11558 | 206 | -54.5 | -63.5 | ||
| 2013-04-09T12:00 | 11652 | 203 | -53.9 | -62.9 | ||
| 2013-04-09T12:00 | 11750 | 200 | -51.9 | -60.9 | 205 | 27 |
| 2013-04-09T12:00 | 11947 | 194 | -52.1 | -61.1 | ||
| 2013-04-09T12:00 | 12014 | 192 | -49.9 | -59.9 | ||
| 2013-04-09T12:00 | 12117 | 189 | -49.3 | -59.3 | ||
| 2013-04-09T12:00 | 12581 | 176 | -51.1 | -63.1 | ||
| 2013-04-09T12:00 | 12730 | 172 | -50.5 | -62.5 | ||
| 2013-04-09T12:00 | 13039 | 164 | -52.1 | -65.1 | ||
| 2013-04-09T12:00 | 13199 | 160 | -51.5 | -64.5 | ||
| 2013-04-09T12:00 | 13281 | 158 | -50.5 | -64.5 | ||
| 2013-04-09T12:00 | 13405 | 155 | -51.7 | -65.7 | ||
| 2013-04-09T12:00 | 13620 | 150 | -51.7 | -65.7 | 225 | 17 |
| 2013-04-09T12:00 | 13751 | 147 | -50.3 | -65.3 | ||
| 2013-04-09T12:00 | 14068 | 140 | -51.7 | -66.7 | ||
| 2013-04-09T12:00 | 14598 | 129 | -51.3 | -68.3 | ||
| 2013-04-09T12:00 | 14905 | 123 | -53.3 | -70.3 | ||
| 2013-04-09T12:00 | 15503 | 112 | -55.7 | -72.7 | ||
| 2013-04-09T12:00 | 15676 | 109 | -54.9 | -71.9 | ||
| 2013-04-09T12:00 | 16097 | 102 | -56.9 | -73.9 | ||
| 2013-04-09T12:00 | 16230 | 100 | -56.1 | -73.1 | 250 | 16 |
| 2013-04-09T12:00 | 17239 | 85 | -61.9 | -76.9 | ||
| 2013-04-09T12:00 | 17558 | 80 | -62.5 | -76.5 | ||
| 2013-04-09T12:00 | 17673 | 79 | -61.9 | -76.9 | ||
| 2013-04-09T12:00 | 17808 | 77 | -57.9 | -73.9 | ||
| 2013-04-09T12:00 | 18360 | 71 | -56.1 | -75.1 | ||
| 2013-04-09T12:00 | 18470 | 70 | -56.7 | -74.7 | 280 | 12 |
| 2013-04-09T12:00 | 19392 | 60 | -61.5 | -77.5 | ||
| 2013-04-09T12:00 | 19870 | 55 | -61.7 | -77.7 | ||
| 2013-04-09T12:00 | 19948 | 55 | -59.5 | -76.5 | ||
| 2013-04-09T12:00 | 20132 | 53 | -57.9 | -75.9 | ||
| 2013-04-09T12:00 | 20570 | 50 | -60.7 | -77.7 | 170 | 6 |
| 2013-04-09T12:00 | 21096 | 45 | -64.7 | -79.7 | ||
| 2013-04-09T12:00 | 21685 | 41 | -61.3 | -78.3 | ||
| 2013-04-09T12:00 | 22098 | 39 | -62.5 | -78.5 | ||
| 2013-04-09T12:00 | 22661 | 35 | -60.9 | -78.9 | ||
| 2013-04-09T12:00 | 23261 | 32 | -62.9 | -79.9 | ||
| 2013-04-09T12:00 | 23730 | 30 | -60.7 | -79.7 | 280 | 12 |
| 2013-04-09T12:00 | 23856 | 29 | -59.5 | -79.5 | ||
| 2013-04-09T12:00 | 24250 | 27 | -59.9 | -80.9 | ||
| 2013-04-09T12:00 | 24576 | 26 | -58.1 | -83.1 | ||
| 2013-04-09T12:00 | 24970 | 24 | -59.5 | -83.5 | ||
| 2013-04-09T12:00 | 25312 | 23 | -55.7 | -87.7 | ||
| 2013-04-09T12:00 | 25734 | 21 | -56.1 | -88.1 | ||
| 2013-04-09T12:00 | 25852 | 21 | -54.3 | -87.3 | ||
| 2013-04-09T12:00 | 26290 | 20 | -55.3 | -87.3 | 240 | 14 |
| 2013-04-09T12:00 | 26783 | 18 | -57.9 | -89.9 | ||
| 2013-04-09T12:00 | 28373 | 14 | -53.7 | -86.7 | ||
| 2013-04-09T12:00 | 29806 | 11 | -56.1 | -88.1 | ||
| 2013-04-09T12:00 | 30638 | 10 | -51.1 | -85.1 | ||
| 2013-04-09T12:00 | 30710 | 10 | -50.7 | -84.7 | 250 | 35 |
| 2013-04-09T12:00 | 31044 | 9 | -50.1 | -84.1 | ||
| 2013-04-10T00:00 | 233 | 1000 | ||||
| 2013-04-10T00:00 | 851 | 925 | ||||
| 2013-04-10T00:00 | 1513 | 850 | ||||
| 2013-04-10T00:00 | 1712 | 828 | -11.3 | -14.0 | ||
| 2013-04-10T00:00 | 2311 | 765 | -16.3 | -18.0 | ||
| 2013-04-10T00:00 | 2980 | 700 | -19.7 | -21.2 | 335 | 11 |
| 2013-04-10T00:00 | 3001 | 698 | -19.9 | -21.3 | ||
| 2013-04-10T00:00 | 3260 | 674 | -19.7 | -21.2 | ||
| 2013-04-10T00:00 | 3360 | 665 | -16.7 | -17.7 | ||
| 2013-04-10T00:00 | 3485 | 654 | -16.3 | -17.0 | ||
| 2013-04-10T00:00 | 3626 | 642 | -13.7 | -13.7 | ||
| 2013-04-10T00:00 | 3732 | 633 | -12.7 | -12.7 | ||
| 2013-04-10T00:00 | 3964 | 614 | -12.9 | -12.9 | ||
| 2013-04-10T00:00 | 4343 | 584 | -14.7 | -16.6 | ||
| 2013-04-10T00:00 | 4473 | 574 | -15.5 | -19.6 | ||
| 2013-04-10T00:00 | 4685 | 558 | -16.5 | -20.2 | ||
| 2013-04-10T00:00 | 4752 | 553 | -17.3 | -21.3 | ||
| 2013-04-10T00:00 | 4847 | 546 | -18.3 | -25.3 | ||
| 2013-04-10T00:00 | 5237 | 518 | -21.1 | -27.1 | ||
| 2013-04-10T00:00 | 5352 | 510 | -21.1 | -25.2 | ||
| 2013-04-10T00:00 | 5510 | 500 | -21.7 | -25.5 | 155 | 6 |
| 2013-04-10T00:00 | 5584 | 495 | -22.3 | -26.1 | ||
| 2013-04-10T00:00 | 7110 | 400 | -34.9 | -40.9 | 140 | 8 |
| 2013-04-10T00:00 | 7739 | 365 | -40.7 | -46.7 | ||
| 2013-04-10T00:00 | 8498 | 326 | -45.7 | -52.7 | ||
| 2013-04-10T00:00 | 8580 | 322 | -45.1 | -52.1 | ||
| 2013-04-10T00:00 | 9050 | 300 | -46.9 | -55.9 | 175 | 9 |
| 2013-04-10T00:00 | 9229 | 292 | -46.7 | -56.7 | ||
| 2013-04-10T00:00 | 9819 | 267 | -48.5 | -59.5 | ||
| 2013-04-10T00:00 | 10173 | 253 | -47.9 | -58.9 | ||
| 2013-04-10T00:00 | 10260 | 250 | -46.5 | -58.5 | 180 | 13 |
| 2013-04-10T00:00 | 10340 | 247 | -45.9 | -57.9 | ||
| 2013-04-10T00:00 | 10782 | 231 | -48.3 | -60.3 | ||
| 2013-04-10T00:00 | 10926 | 226 | -47.3 | -59.3 | ||
| 2013-04-10T00:00 | 11604 | 204 | -45.9 | -58.9 | ||
| 2013-04-10T00:00 | 11740 | 200 | -46.3 | -59.3 | 220 | 13 |
| 2013-04-10T00:00 | 11976 | 193 | -45.9 | -59.9 | ||
| 2013-04-10T00:00 | 12185 | 187 | -47.3 | -60.3 | ||
| 2013-04-10T00:00 | 12400 | 181 | -46.9 | -60.9 | ||
| 2013-04-10T00:00 | 12510 | 178 | -47.5 | -61.5 | ||
| 2013-04-10T00:00 | 12852 | 169 | -47.3 | -61.3 | ||
| 2013-04-10T00:00 | 12970 | 166 | -46.7 | -60.7 | ||
| 2013-04-10T00:00 | 13380 | 156 | -48.1 | -62.1 | ||
| 2013-04-10T00:00 | 13508 | 153 | -47.5 | -61.5 | ||
| 2013-04-10T00:00 | 13640 | 150 | -48.5 | -62.5 | 245 | 12 |
| 2013-04-10T00:00 | 13684 | 149 | -48.9 | -62.9 | ||
| 2013-04-10T00:00 | 13999 | 142 | -48.7 | -62.7 | ||
| 2013-04-10T00:00 | 14426 | 133 | -51.1 | -64.1 | ||
| 2013-04-10T00:00 | 14524 | 131 | -50.9 | -63.9 | ||
| 2013-04-10T00:00 | 14931 | 123 | -52.9 | -65.9 | ||
| 2013-04-10T00:00 | 15144 | 119 | -52.9 | -65.9 | ||
| 2013-04-10T00:00 | 15308 | 116 | -54.3 | -67.3 | ||
| 2013-04-10T00:00 | 15419 | 114 | -53.7 | -66.7 | ||
| 2013-04-10T00:00 | 15647 | 110 | -54.7 | -66.7 | ||
| 2013-04-10T00:00 | 15824 | 107 | -53.9 | -66.9 | ||
| 2013-04-10T00:00 | 16067 | 103 | -54.7 | -67.7 | ||
| 2013-04-10T00:00 | 16260 | 100 | -54.1 | -67.1 | 240 | 14 |
| 2013-04-10T00:00 | 17017 | 88 | -55.7 | -67.7 | ||
| 2013-04-10T00:00 | 18011 | 75 | -60.5 | -71.5 | ||
| 2013-04-10T00:00 | 18358 | 71 | -58.9 | -70.9 | ||
| 2013-04-10T00:00 | 18520 | 70 | -59.7 | -71.7 | 265 | 15 |
| 2013-04-10T00:00 | 18866 | 66 | -61.7 | -72.7 | ||
| 2013-04-10T00:00 | 19334 | 61 | -59.1 | -71.1 | ||
| 2013-04-10T00:00 | 19667 | 58 | -61.3 | -72.3 | ||
| 2013-04-10T00:00 | 20316 | 52 | -61.3 | -72.3 | ||
| 2013-04-10T00:00 | 20610 | 50 | -62.7 | -73.7 | 240 | 6 |
| 2013-04-10T00:00 | 20721 | 49 | -63.3 | -74.3 | ||
| 2013-04-10T00:00 | 20989 | 47 | -63.1 | -74.1 | ||
| 2013-04-10T00:00 | 21108 | 46 | -61.1 | -72.1 | ||
| 2013-04-10T00:00 | 21452 | 43 | -63.1 | -74.1 | ||
| 2013-04-10T00:00 | 21667 | 42 | -62.7 | -73.7 | ||
| 2013-04-10T00:00 | 22251 | 38 | -60.7 | -72.7 | ||
| 2013-04-10T00:00 | 22366 | 37 | -58.9 | -70.9 | ||
| 2013-04-10T00:00 | 23390 | 31 | -60.7 | -72.7 | ||
| 2013-04-10T00:00 | 23780 | 30 | -58.7 | -71.7 | 275 | 11 |
| 2013-04-10T00:00 | 24372 | 27 | -57.5 | -70.5 | ||
| 2013-04-10T00:00 | 25613 | 22 | -59.1 | -72.1 | ||
| 2013-04-10T00:00 | 25784 | 21 | -55.9 | -69.9 | ||
| 2013-04-10T00:00 | 26340 | 20 | -55.9 | -69.9 | 255 | 13 |
| 2013-04-10T00:00 | 26404 | 19 | -56.1 | -70.1 | ||
| 2013-04-10T00:00 | 26567 | 19 | -53.7 | -69.7 | ||
| 2013-04-10T00:00 | 27412 | 16 | -56.9 | -71.9 | ||
| 2013-04-10T00:00 | 28042 | 15 | -55.5 | -71.5 | ||
| 2013-04-10T00:00 | 28471 | 14 | -56.5 | -72.5 | ||
| 2013-04-10T12:00 | 245 | 1000 | ||||
| 2013-04-10T12:00 | 857 | 925 | ||||
| 2013-04-10T12:00 | 1512 | 850 | ||||
| 2013-04-10T12:00 | 1666 | 833 | -12.9 | -15.1 | ||
| 2013-04-10T12:00 | 2211 | 775 | -16.5 | -18.5 | ||
| 2013-04-10T12:00 | 2309 | 765 | -15.5 | -17.3 | ||
| 2013-04-10T12:00 | 2589 | 737 | -17.1 | -18.9 | ||
| 2013-04-10T12:00 | 2858 | 711 | -16.7 | -18.4 | ||
| 2013-04-10T12:00 | 2932 | 704 | -15.3 | -17.2 | ||
| 2013-04-10T12:00 | 2980 | 700 | -15.1 | -17.1 | 355 | 15 |
| 2013-04-10T12:00 | 3143 | 685 | -14.3 | -16.6 | ||
| 2013-04-10T12:00 | 3210 | 679 | -12.9 | -15.6 | ||
| 2013-04-10T12:00 | 3437 | 659 | -13.7 | -16.0 | ||
| 2013-04-10T12:00 | 3695 | 637 | -13.1 | -15.2 | ||
| 2013-04-10T12:00 | 3803 | 628 | -13.7 | -15.9 | ||
| 2013-04-10T12:00 | 3937 | 617 | -12.9 | -15.2 | ||
| 2013-04-10T12:00 | 4405 | 580 | -14.9 | -17.5 | ||
| 2013-04-10T12:00 | 4563 | 568 | -14.7 | -18.3 | ||
| 2013-04-10T12:00 | 4724 | 556 | -15.1 | -22.1 | ||
| 2013-04-10T12:00 | 5055 | 532 | -16.9 | -26.9 | ||
| 2013-04-10T12:00 | 5520 | 500 | -20.9 | -30.9 | 315 | 6 |
| 2013-04-10T12:00 | 7130 | 400 | -34.9 | -43.9 | 325 | 3 |
| 2013-04-10T12:00 | 7253 | 393 | -35.9 | -44.9 | ||
| 2013-04-10T12:00 | 9030 | 302 | -48.3 | -56.3 | ||
| 2013-04-10T12:00 | 9070 | 300 | -48.3 | -56.3 | 315 | 8 |
| 2013-04-10T12:00 | 9407 | 285 | -48.3 | -56.3 | ||
| 2013-04-10T12:00 | 9547 | 279 | -46.7 | -54.7 | ||
| 2013-04-10T12:00 | 9642 | 275 | -47.1 | -56.1 | ||
| 2013-04-10T12:00 | 9715 | 272 | -45.9 | -54.9 | ||
| 2013-04-10T12:00 | 9813 | 268 | -45.7 | -54.7 | ||
| 2013-04-10T12:00 | 10143 | 255 | -46.1 | -55.1 | ||
| 2013-04-10T12:00 | 10270 | 250 | -47.1 | -56.1 | 245 | 3 |
| 2013-04-10T12:00 | 10457 | 243 | -48.3 | -57.3 | ||
| 2013-04-10T12:00 | 10539 | 240 | -47.1 | -57.1 | ||
| 2013-04-10T12:00 | 10848 | 229 | -47.7 | -57.7 | ||
| 2013-04-10T12:00 | 11112 | 220 | -47.3 | -57.3 | ||
| 2013-04-10T12:00 | 11172 | 218 | -46.7 | -56.7 | ||
| 2013-04-10T12:00 | 11750 | 200 | -47.1 | -57.1 | 220 | 6 |
| 2013-04-10T12:00 | 12408 | 181 | -47.9 | -58.9 | ||
| 2013-04-10T12:00 | 12668 | 174 | -47.3 | -58.3 | ||
| 2013-04-10T12:00 | 13097 | 163 | -49.3 | -60.3 | ||
| 2013-04-10T12:00 | 13640 | 150 | -50.1 | -61.1 | 285 | 8 |
| 2013-04-10T12:00 | 13861 | 145 | -50.5 | -61.5 | ||
| 2013-04-10T12:00 | 14278 | 136 | -50.3 | -61.3 | ||
| 2013-04-10T12:00 | 14570 | 130 | -52.5 | -62.5 | ||
| 2013-04-10T12:00 | 14926 | 123 | -52.9 | -62.9 | ||
| 2013-04-10T12:00 | 15032 | 121 | -52.3 | -63.3 | ||
| 2013-04-10T12:00 | 15471 | 113 | -54.9 | -64.9 | ||
| 2013-04-10T12:00 | 15999 | 104 | -55.3 | -65.3 | ||
| 2013-04-10T12:00 | 16260 | 100 | -56.9 | -66.9 | 265 | 11 |
| 2013-04-10T12:00 | 16977 | 89 | -59.9 | -69.9 | ||
| 2013-04-10T12:00 | 17301 | 84 | -58.1 | -68.1 | ||
| 2013-04-10T12:00 | 17884 | 77 | -57.9 | -67.9 | ||
| 2013-04-10T12:00 | 18500 | 70 | -59.5 | -69.5 | 265 | 12 |
| 2013-04-10T12:00 | 19116 | 63 | -60.9 | -69.9 | ||
| 2013-04-10T12:00 | 19528 | 59 | -63.3 | -72.3 | ||
| 2013-04-10T12:00 | 19665 | 58 | -61.1 | -70.1 | ||
| 2013-04-10T12:00 | 19904 | 55 | -61.1 | -70.1 | ||
| 2013-04-10T12:00 | 20456 | 51 | -64.7 | -73.7 | ||
| 2013-04-10T12:00 | 20580 | 50 | -63.1 | -72.1 | 275 | 14 |
| 2013-04-10T12:00 | 20870 | 47 | -61.1 | -70.1 | ||
| 2013-04-10T12:00 | 21742 | 41 | -63.7 | -72.7 | ||
| 2013-04-10T12:00 | 21984 | 39 | -61.3 | -70.3 | ||
| 2013-04-10T12:00 | 22552 | 36 | -62.1 | -71.1 | ||
| 2013-04-10T12:00 | 23069 | 33 | -59.3 | -69.3 | ||
| 2013-04-10T12:00 | 23740 | 30 | -61.5 | -71.5 | 295 | 7 |
| 2013-04-10T12:00 | 24298 | 27 | -63.5 | -72.5 | ||
| 2013-04-10T12:00 | 25345 | 23 | -62.9 | -72.9 | ||
| 2013-04-10T12:00 | 25645 | 22 | -62.1 | -72.1 | ||
| 2013-04-10T12:00 | 25817 | 21 | -58.3 | -68.3 | ||
| 2013-04-10T12:00 | 26250 | 20 | -57.3 | -68.3 | 270 | 22 |
| 2013-04-10T12:00 | 26915 | 18 | -56.9 | -67.9 | ||
| 2013-04-10T12:00 | 27130 | 17 | -55.3 | -66.3 | ||
| 2013-04-10T12:00 | 28072 | 15 | -56.5 | -68.5 | ||
| 2013-04-10T12:00 | 28421 | 14 | -53.9 | -66.9 | ||
| 2013-04-10T12:00 | 29081 | 12 | -57.1 | -70.1 | ||
| 2013-04-10T12:00 | 29545 | 11 | -53.7 | -67.7 | ||
| 2013-04-10T12:00 | 30165 | 10 | -54.5 | -70.5 | ||
| 2013-04-11T00:00 | 197 | 1000 | ||||
| 2013-04-11T00:00 | 816 | 925 | ||||
| 2013-04-11T00:00 | 1479 | 850 | ||||
| 2013-04-11T00:00 | 1724 | 824 | -5.9 | -11.9 | ||
| 2013-04-11T00:00 | 1886 | 807 | -7.7 | -13.7 | ||
| 2013-04-11T00:00 | 2418 | 753 | -12.3 | -14.3 | ||
| 2013-04-11T00:00 | 2592 | 736 | -12.3 | -13.8 | ||
| 2013-04-11T00:00 | 2844 | 712 | -13.5 | -14.9 | ||
| 2013-04-11T00:00 | 2876 | 709 | -13.1 | -14.5 | ||
| 2013-04-11T00:00 | 2930 | 704 | -10.3 | -10.9 | ||
| 2013-04-11T00:00 | 2977 | 700 | -10.3 | -11.0 | 335 | 14 |
| 2013-04-11T00:00 | 3110 | 688 | -10.1 | -12.9 | ||
| 2013-04-11T00:00 | 3533 | 651 | -12.1 | -16.6 | ||
| 2013-04-11T00:00 | 4188 | 597 | -15.9 | -19.6 | ||
| 2013-04-11T00:00 | 4341 | 585 | -15.1 | -19.0 | ||
| 2013-04-11T00:00 | 4629 | 563 | -15.9 | -20.9 | ||
| 2013-04-11T00:00 | 4859 | 546 | -17.7 | -21.7 | ||
| 2013-04-11T00:00 | 4928 | 541 | -17.1 | -21.2 | ||
| 2013-04-11T00:00 | 5166 | 524 | -18.9 | -23.0 | ||
| 2013-04-11T00:00 | 5520 | 500 | -20.1 | -28.1 | 335 | 14 |
| 2013-04-11T00:00 | 5699 | 488 | -20.9 | -30.9 | ||
| 2013-04-11T00:00 | 6100 | 462 | -23.9 | -31.9 | ||
| 2013-04-11T00:00 | 6470 | 439 | -26.1 | -36.1 | ||
| 2013-04-11T00:00 | 7140 | 400 | -32.1 | -41.1 | 345 | 19 |
| 2013-04-11T00:00 | 7300 | 391 | -33.5 | -41.5 | ||
| 2013-04-11T00:00 | 7872 | 360 | -38.3 | -47.3 | ||
| 2013-04-11T00:00 | 8426 | 332 | -40.3 | -50.3 | ||
| 2013-04-11T00:00 | 9084 | 301 | -45.5 | -55.5 | ||
| 2013-04-11T00:00 | 9110 | 300 | -45.5 | -55.5 | 31 | |
| 2013-04-11T00:00 | 9473 | 284 | -47.1 | -57.1 | ||
| 2013-04-11T00:00 | 10320 | 250 | -48.7 | -58.7 | 5 | 38 |
| 2013-04-11T00:00 | 10753 | 234 | -49.1 | -59.1 | ||
| 2013-04-11T00:00 | 10838 | 231 | -48.5 | -58.5 | ||
| 2013-04-11T00:00 | 11128 | 221 | -49.3 | -59.3 | ||
| 2013-04-11T00:00 | 11401 | 212 | -47.5 | -57.5 | ||
| 2013-04-11T00:00 | 11720 | 202 | -46.7 | -57.7 | ||
| 2013-04-11T00:00 | 11780 | 200 | -47.1 | -58.1 | 340 | 15 |
| 2013-04-11T00:00 | 12049 | 192 | -47.3 | -58.3 | ||
| 2013-04-11T00:00 | 12582 | 177 | -50.1 | -60.1 | ||
| 2013-04-11T00:00 | 12807 | 171 | -50.3 | -60.3 | ||
| 2013-04-11T00:00 | 13040 | 165 | -49.5 | -60.5 | ||
| 2013-04-11T00:00 | 13446 | 155 | -51.7 | -61.7 | ||
| 2013-04-11T00:00 | 13670 | 150 | -52.1 | -62.1 | 300 | 8 |
| 2013-04-11T00:00 | 13844 | 146 | -52.3 | -62.3 | ||
| 2013-04-11T00:00 | 13888 | 145 | -51.9 | -61.9 | ||
| 2013-04-11T00:00 | 14161 | 139 | -52.7 | -62.7 | ||
| 2013-04-11T00:00 | 14208 | 138 | -52.1 | -62.1 | ||
| 2013-04-11T00:00 | 14446 | 133 | -53.1 | -63.1 | ||
| 2013-04-11T00:00 | 15001 | 122 | -52.7 | -62.7 | ||
| 2013-04-11T00:00 | 15161 | 119 | -53.7 | -63.7 | ||
| 2013-04-11T00:00 | 15380 | 115 | -53.5 | -63.5 | ||
| 2013-04-11T00:00 | 15722 | 109 | -55.1 | -65.1 | ||
| 2013-04-11T00:00 | 15840 | 107 | -54.3 | -64.3 | ||
| 2013-04-11T00:00 | 16207 | 101 | -56.7 | -66.7 | ||
| 2013-04-11T00:00 | 16280 | 100 | -56.1 | -66.1 | 300 | 12 |
| 2013-04-11T00:00 | 18144 | 74 | -60.5 | -69.5 | ||
| 2013-04-11T00:00 | 18520 | 70 | -60.9 | -69.9 | 260 | 16 |
| 2013-04-11T00:00 | 19850 | 56 | -60.1 | -69.1 | ||
| 2013-04-11T00:00 | 20422 | 51 | -63.3 | -72.3 | ||
| 2013-04-11T00:00 | 20610 | 50 | -62.1 | -71.1 | 270 | 4 |
| 2013-04-11T00:00 | 20978 | 47 | -62.3 | -71.3 | ||
| 2013-04-11T00:00 | 21769 | 41 | -64.1 | -73.1 | ||
| 2013-04-11T00:00 | 21965 | 40 | -61.9 | -70.9 | ||
| 2013-04-11T00:00 | 22512 | 36 | -61.9 | -70.9 | ||
| 2013-04-11T00:00 | 22842 | 34 | -58.7 | -68.7 | ||
| 2013-04-11T00:00 | 23386 | 31 | -59.3 | -69.3 | ||
| 2013-04-11T00:00 | 23485 | 31 | -57.9 | -67.9 | ||
| 2013-04-11T00:00 | 23729 | 30 | -59.7 | -69.7 | ||
| 2013-04-11T00:00 | 23780 | 30 | -59.7 | -69.7 | 290 | 7 |
| 2013-04-11T00:00 | 24623 | 26 | -60.5 | -70.5 | ||
| 2013-04-11T00:00 | 24891 | 25 | -58.1 | -68.1 | ||
| 2013-04-11T00:00 | 25492 | 22 | -59.7 | -69.7 | ||
| 2013-04-11T00:00 | 25946 | 21 | -58.9 | -68.9 | ||
| 2013-04-11T00:00 | 26320 | 20 | -55.7 | -65.7 | 260 | 17 |
| 2013-04-11T00:00 | 27272 | 17 | -58.1 | -68.1 | ||
| 2013-04-11T00:00 | 27649 | 16 | -57.3 | -68.3 | ||
| 2013-04-11T00:00 | 27888 | 15 | -54.9 | -65.9 | ||
| 2013-04-11T00:00 | 28483 | 14 | -58.1 | -69.1 | ||
| 2013-04-11T00:00 | 28708 | 13 | -57.7 | -68.7 | ||
| 2013-04-11T00:00 | 29824 | 11 | -52.1 | -66.1 | ||
| 2013-04-11T00:00 | 29938 | 11 | -50.1 | -64.1 | ||
| 2013-04-11T00:00 | 30750 | 10 | -49.7 | -64.7 | 255 | 27 |
| 2013-04-11T00:00 | 31154 | 9 | -49.3 | -65.3 | ||
| 2013-04-11T12:00 | 105 | 1000 | ||||
| 2013-04-11T12:00 | 734 | 925 | ||||
| 2013-04-11T12:00 | 1408 | 850 | ||||
| 2013-04-11T12:00 | 1668 | 822 | -5.5 | -9.0 | ||
| 2013-04-11T12:00 | 1726 | 816 | -5.3 | -9.8 | ||
| 2013-04-11T12:00 | 1773 | 811 | -4.1 | -9.1 | ||
| 2013-04-11T12:00 | 1842 | 804 | 0.8 | -6.2 | ||
| 2013-04-11T12:00 | 1922 | 796 | 1.0 | -8.0 | ||
| 2013-04-11T12:00 | 1973 | 791 | 2.4 | -7.6 | ||
| 2013-04-11T12:00 | 2076 | 781 | 3.2 | -8.8 | ||
| 2013-04-11T12:00 | 2958 | 700 | -3.1 | -12.1 | 325 | 17 |
| 2013-04-11T12:00 | 3151 | 683 | -4.7 | -12.7 | ||
| 2013-04-11T12:00 | 4332 | 586 | -13.7 | -15.8 | ||
| 2013-04-11T12:00 | 4502 | 573 | -14.3 | -15.6 | ||
| 2013-04-11T12:00 | 5449 | 505 | -18.5 | -20.7 | ||
| 2013-04-11T12:00 | 5530 | 500 | -19.1 | -21.6 | 345 | 26 |
| 2013-04-11T12:00 | 5831 | 480 | -21.5 | -23.9 | ||
| 2013-04-11T12:00 | 5939 | 473 | -20.5 | -23.0 | ||
| 2013-04-11T12:00 | 6241 | 454 | -21.9 | -26.0 | ||
| 2013-04-11T12:00 | 6807 | 420 | -26.1 | -30.6 | ||
| 2013-04-11T12:00 | 6928 | 413 | -26.9 | -32.9 | ||
| 2013-04-11T12:00 | 7033 | 407 | -26.5 | -36.5 | ||
| 2013-04-11T12:00 | 7104 | 403 | -26.1 | -38.1 | ||
| 2013-04-11T12:00 | 7160 | 400 | -26.3 | -38.3 | 315 | 33 |
| 2013-04-11T12:00 | 7306 | 392 | -26.7 | -37.7 | ||
| 2013-04-11T12:00 | 9180 | 300 | -42.9 | -50.9 | 300 | 31 |
| 2013-04-11T12:00 | 9687 | 278 | -47.7 | -54.7 | ||
| 2013-04-11T12:00 | 10051 | 263 | -49.3 | -56.3 | ||
| 2013-04-11T12:00 | 10380 | 250 | -52.5 | -59.5 | 290 | 36 |
| 2013-04-11T12:00 | 10406 | 249 | -52.7 | -59.7 | ||
| 2013-04-11T12:00 | 10670 | 239 | -53.3 | -60.3 | ||
| 2013-04-11T12:00 | 11312 | 216 | -58.3 | -65.3 | ||
| 2013-04-11T12:00 | 11489 | 210 | -57.7 | -64.7 | ||
| 2013-04-11T12:00 | 11800 | 200 | -59.3 | -66.3 | 290 | 23 |
| 2013-04-11T12:00 | 11958 | 195 | -59.5 | |||
| 2013-04-11T12:00 | 12088 | 191 | -58.1 | |||
| 2013-04-11T12:00 | 12154 | 189 | -55.9 | |||
| 2013-04-11T12:00 | 12290 | 185 | -53.9 | |||
| 2013-04-11T12:00 | 12830 | 170 | -55.3 | |||
| 2013-04-11T12:00 | 13137 | 162 | -55.1 | |||
| 2013-04-11T12:00 | 13337 | 157 | -53.7 | |||
| 2013-04-11T12:00 | 13630 | 150 | -54.1 | -62.1 | 295 | 13 |
| 2013-04-11T12:00 | 13716 | 148 | -54.3 | |||
| 2013-04-11T12:00 | 13847 | 145 | -53.7 | |||
| 2013-04-11T12:00 | 13981 | 142 | -54.5 | |||
| 2013-04-11T12:00 | 14026 | 141 | -52.7 | |||
| 2013-04-11T12:00 | 14118 | 139 | -51.5 | |||
| 2013-04-11T12:00 | 14649 | 128 | -53.5 | |||
| 2013-04-11T12:00 | 14853 | 124 | -52.3 | |||
| 2013-04-11T12:00 | 15559 | 111 | -57.3 | |||
| 2013-04-11T12:00 | 15674 | 109 | -55.9 | |||
| 2013-04-11T12:00 | 15851 | 106 | -54.9 | |||
| 2013-04-11T12:00 | 16230 | 100 | -56.1 | -64.1 | 275 | 15 |
| 2013-04-11T12:00 | 17035 | 88 | -59.1 | |||
| 2013-04-11T12:00 | 17838 | 77 | -58.5 | |||
| 2013-04-11T12:00 | 18470 | 70 | -61.7 | 240 | 12 | |
| 2013-04-11T12:00 | 18568 | 68 | -62.1 | |||
| 2013-04-11T12:00 | 18649 | 68 | -61.1 | |||
| 2013-04-11T12:00 | 19370 | 60 | -62.9 | |||
| 2013-04-11T12:00 | 19824 | 56 | -61.9 | |||
| 2013-04-11T12:00 | 20254 | 52 | -63.5 | |||
| 2013-04-11T12:00 | 20493 | 50 | -62.9 | |||
| 2013-04-11T12:00 | 20550 | 50 | -62.1 | 265 | 14 | |
| 2013-04-11T12:00 | 20650 | 49 | -60.5 | |||
| 2013-04-11T12:00 | 21218 | 44 | -60.1 | |||
| 2013-04-11T12:00 | 21932 | 40 | -62.9 | |||
| 2013-04-11T12:00 | 23049 | 33 | -59.3 | |||
| 2013-04-11T12:00 | 23720 | 30 | -61.1 | 275 | 13 | |
| 2013-04-11T12:00 | 23741 | 29 | -61.1 | |||
| 2013-04-11T12:00 | 24802 | 25 | -60.1 | |||
| 2013-04-11T12:00 | 25624 | 22 | -57.5 | |||
| 2013-04-11T12:00 | 26260 | 20 | -58.9 | 260 | 16 | |
| 2013-04-11T12:00 | 27092 | 17 | -60.9 | |||
| 2013-04-11T12:00 | 27576 | 16 | -55.9 | |||
| 2013-04-11T12:00 | 29272 | 12 | -55.9 | |||
| 2013-04-11T12:00 | 29698 | 11 | -52.7 | |||
| 2013-04-11T12:00 | 29923 | 11 | -53.5 | |||
| 2013-04-11T12:00 | 30402 | 10 | -49.9 | |||
| 2013-04-11T12:00 | 30670 | 10 | -51.3 | 240 | 20 | |
| 2013-04-11T12:00 | 31070 | 9 | -51.7 | |||
| 2013-04-11T12:00 | 31282 | 9 | -46.7 | -62.7 | ||
| 2013-04-12T00:00 | 90 | 1000 | ||||
| 2013-04-12T00:00 | 736 | 925 | ||||
| 2013-04-12T00:00 | 1427 | 850 | ||||
| 2013-04-12T00:00 | 1710 | 821 | 7.0 | -1.0 | ||
| 2013-04-12T00:00 | 1962 | 796 | 4.6 | -2.4 | ||
| 2013-04-12T00:00 | 2505 | 744 | -0.5 | -3.3 | ||
| 2013-04-12T00:00 | 2994 | 700 | -3.9 | -5.3 | 300 | 8 |
| 2013-04-12T00:00 | 3073 | 693 | -4.7 | -5.7 | ||
| 2013-04-12T00:00 | 3384 | 666 | -6.3 | -7.1 | ||
| 2013-04-12T00:00 | 3657 | 643 | -7.7 | -9.9 | ||
| 2013-04-12T00:00 | 4126 | 605 | -11.1 | -13.9 | ||
| 2013-04-12T00:00 | 4408 | 583 | -13.7 | -15.6 | ||
| 2013-04-12T00:00 | 4632 | 566 | -15.1 | -18.4 | ||
| 2013-04-12T00:00 | 4902 | 546 | -16.7 | -18.7 | ||
| 2013-04-12T00:00 | 5423 | 509 | -21.3 | -27.3 | ||
| 2013-04-12T00:00 | 5560 | 500 | -22.5 | -31.5 | 315 | 21 |
| 2013-04-12T00:00 | 5589 | 498 | -22.9 | -31.9 | ||
| 2013-04-12T00:00 | 6152 | 461 | -24.3 | -38.3 | ||
| 2013-04-12T00:00 | 6855 | 418 | -30.1 | -43.1 | ||
| 2013-04-12T00:00 | 7170 | 400 | -32.3 | -44.3 | 310 | 19 |
| 2013-04-12T00:00 | 7603 | 376 | -34.9 | -45.9 | ||
| 2013-04-12T00:00 | 9140 | 300 | -47.5 | -56.5 | 290 | 21 |
| 2013-04-12T00:00 | 9430 | 287 | -50.1 | -58.1 | ||
| 2013-04-12T00:00 | 10265 | 252 | -56.5 | -64.5 | ||
| 2013-04-12T00:00 | 10320 | 250 | -56.5 | -64.5 | 275 | 22 |
| 2013-04-12T00:00 | 10552 | 241 | -56.5 | -64.5 | ||
| 2013-04-12T00:00 | 10605 | 239 | -55.3 | -63.3 | ||
| 2013-04-12T00:00 | 10685 | 236 | -55.5 | -63.5 | ||
| 2013-04-12T00:00 | 10849 | 230 | -54.1 | -62.1 | ||
| 2013-04-12T00:00 | 11221 | 217 | -54.1 | -62.1 | ||
| 2013-04-12T00:00 | 11587 | 205 | -51.1 | -60.1 | ||
| 2013-04-12T00:00 | 11750 | 200 | -52.5 | 280 | 16 | |
| 2013-04-12T00:00 | 11913 | 195 | -53.7 | |||
| 2013-04-12T00:00 | 11979 | 193 | -53.5 | |||
| 2013-04-12T00:00 | 12114 | 189 | -52.1 | |||
| 2013-04-12T00:00 | 12183 | 187 | -50.3 | |||
| 2013-04-12T00:00 | 12324 | 183 | -49.7 | |||
| 2013-04-12T00:00 | 12615 | 175 | -50.7 | |||
| 2013-04-12T00:00 | 12727 | 172 | -50.5 | -59.5 | ||
| 2013-04-12T00:00 | 12765 | 171 | -50.3 | |||
| 2013-04-12T00:00 | 12958 | 166 | -51.5 | |||
| 2013-04-12T00:00 | 13486 | 153 | -51.5 | |||
| 2013-04-12T00:00 | 13620 | 150 | -52.3 | 295 | 23 | |
| 2013-04-12T00:00 | 14249 | 136 | -54.3 | |||
| 2013-04-12T00:00 | 14440 | 132 | -53.1 | |||
| 2013-04-12T00:00 | 14587 | 129 | -53.9 | |||
| 2013-04-12T00:00 | 14738 | 126 | -51.9 | |||
| 2013-04-12T00:00 | 15106 | 119 | -53.5 | |||
| 2013-04-12T00:00 | 15780 | 107 | -58.7 | |||
| 2013-04-12T00:00 | 16080 | 102 | -58.1 | |||
| 2013-04-12T00:00 | 16210 | 100 | -58.7 | 285 | 14 | |
| 2013-04-12T00:00 | 16486 | 95 | -58.1 | |||
| 2013-04-12T00:00 | 16801 | 91 | -59.5 | |||
| 2013-04-12T00:00 | 17063 | 87 | -54.5 | |||
| 2013-04-12T00:00 | 18010 | 75 | -60.9 | |||
| 2013-04-12T00:00 | 18341 | 71 | -60.7 | |||
| 2013-04-12T00:00 | 18450 | 70 | -59.7 | 280 | 6 | |
| 2013-04-12T00:00 | 18558 | 68 | -57.5 | |||
| 2013-04-12T00:00 | 19197 | 62 | -61.7 | |||
| 2013-04-12T00:00 | 19338 | 60 | -60.7 | |||
| 2013-04-12T00:00 | 19545 | 58 | -61.5 | |||
| 2013-04-12T00:00 | 19662 | 57 | -59.9 | |||
| 2013-04-12T00:00 | 20550 | 50 | -62.1 | 250 | 11 | |
| 2013-04-12T00:00 | 20700 | 48 | -62.5 | |||
| 2013-04-12T00:00 | 20866 | 47 | -61.7 | |||
| 2013-04-12T00:00 | 20985 | 46 | -58.5 | |||
| 2013-04-12T00:00 | 22080 | 39 | -60.5 | |||
| 2013-04-12T00:00 | 22376 | 37 | -57.5 | |||
| 2013-04-12T00:00 | 22957 | 34 | -58.5 | |||
| 2013-04-12T00:00 | 23419 | 31 | -55.5 | |||
| 2013-04-12T00:00 | 23750 | 30 | -58.1 | 275 | 8 | |
| 2013-04-12T00:00 | 24118 | 28 | -56.3 | |||
| 2013-04-12T00:00 | 24846 | 25 | -60.3 | |||
| 2013-04-12T00:00 | 25335 | 23 | -58.7 | |||
| 2013-04-12T00:00 | 26259 | 20 | -59.3 | |||
| 2013-04-12T00:00 | 26300 | 20 | -59.1 | 270 | 17 | |
| 2013-04-12T00:00 | 26726 | 18 | -54.5 | |||
| 2013-04-12T00:00 | 27915 | 15 | -57.5 | |||
| 2013-04-12T00:00 | 28210 | 14 | -51.7 | |||
| 2013-04-12T00:00 | 29401 | 12 | -53.9 | |||
| 2013-04-12T00:00 | 29776 | 11 | -53.7 | |||
| 2013-04-12T00:00 | 30177 | 10 | -50.9 | -63.9 | ||
| 2013-04-12T12:00 | 95 | 1000 | ||||
| 2013-04-12T12:00 | 749 | 925 | ||||
| 2013-04-12T12:00 | 1449 | 850 | ||||
| 2013-04-12T12:00 | 1718 | 822 | 3.2 | -1.8 | ||
| 2013-04-12T12:00 | 2078 | 786 | 1.0 | -6.0 | ||
| 2013-04-12T12:00 | 2483 | 747 | -2.3 | -3.0 | ||
| 2013-04-12T12:00 | 2622 | 734 | -1.5 | -2.4 | ||
| 2013-04-12T12:00 | 2808 | 717 | -1.9 | -6.5 | ||
| 2013-04-12T12:00 | 3008 | 700 | -3.5 | -8.2 | 285 | 9 |
| 2013-04-12T12:00 | 3742 | 637 | -9.5 | -12.1 | ||
| 2013-04-12T12:00 | 3851 | 628 | -9.9 | -12.8 | ||
| 2013-04-12T12:00 | 4074 | 610 | -10.3 | -17.3 | ||
| 2013-04-12T12:00 | 4290 | 593 | -12.1 | -20.1 | ||
| 2013-04-12T12:00 | 4617 | 568 | -14.9 | -20.9 | ||
| 2013-04-12T12:00 | 4886 | 548 | -16.7 | -29.7 | ||
| 2013-04-12T12:00 | 5220 | 524 | -19.3 | -30.3 | ||
| 2013-04-12T12:00 | 5580 | 500 | -20.3 | -31.3 | 290 | 20 |
| 2013-04-12T12:00 | 5774 | 487 | -21.3 | -30.3 | ||
| 2013-04-12T12:00 | 6143 | 463 | -24.3 | -31.3 | ||
| 2013-04-12T12:00 | 6269 | 455 | -25.5 | -30.2 | ||
| 2013-04-12T12:00 | 6462 | 443 | -27.1 | -31.0 | ||
| 2013-04-12T12:00 | 6809 | 422 | -29.5 | -33.4 | ||
| 2013-04-12T12:00 | 7048 | 408 | -30.9 | -36.9 | ||
| 2013-04-12T12:00 | 7190 | 400 | -32.1 | -38.1 | 280 | 21 |
| 2013-04-12T12:00 | 9150 | 300 | -49.1 | -55.1 | 280 | 25 |
| 2013-04-12T12:00 | 9172 | 299 | -49.5 | -55.5 | ||
| 2013-04-12T12:00 | 10320 | 250 | -57.9 | -63.9 | 280 | 24 |
| 2013-04-12T12:00 | 10550 | 241 | -59.5 | -65.5 | ||
| 2013-04-12T12:00 | 10926 | 227 | -57.5 | -63.5 | ||
| 2013-04-12T12:00 | 11209 | 217 | -57.5 | -63.5 | ||
| 2013-04-12T12:00 | 11297 | 214 | -56.3 | -62.3 | ||
| 2013-04-12T12:00 | 11416 | 210 | -56.3 | -62.3 | ||
| 2013-04-12T12:00 | 11477 | 208 | -55.3 | -61.3 | ||
| 2013-04-12T12:00 | 11695 | 201 | -53.9 | -60.9 | ||
| 2013-04-12T12:00 | 11730 | 200 | -53.7 | 285 | 21 | |
| 2013-04-12T12:00 | 11892 | 195 | -53.7 | |||
| 2013-04-12T12:00 | 11958 | 193 | -52.3 | |||
| 2013-04-12T12:00 | 12230 | 185 | -53.5 | |||
| 2013-04-12T12:00 | 12335 | 182 | -52.5 | |||
| 2013-04-12T12:00 | 12406 | 180 | -52.5 | |||
| 2013-04-12T12:00 | 12515 | 177 | -51.1 | |||
| 2013-04-12T12:00 | 12739 | 171 | -50.9 | |||
| 2013-04-12T12:00 | 12893 | 167 | -49.7 | |||
| 2013-04-12T12:00 | 13051 | 163 | -50.1 | |||
| 2013-04-12T12:00 | 13172 | 160 | -48.7 | |||
| 2013-04-12T12:00 | 13466 | 153 | -47.9 | |||
| 2013-04-12T12:00 | 13600 | 150 | -48.3 | 275 | 19 | |
| 2013-04-12T12:00 | 13822 | 145 | -49.1 | |||
| 2013-04-12T12:00 | 14238 | 136 | -52.1 | |||
| 2013-04-12T12:00 | 14579 | 129 | -52.5 | |||
| 2013-04-12T12:00 | 15204 | 117 | -55.3 | |||
| 2013-04-12T12:00 | 15885 | 105 | -60.1 | |||
| 2013-04-12T12:00 | 16005 | 103 | -60.3 | |||
| 2013-04-12T12:00 | 16200 | 100 | -58.5 | 265 | 24 | |
| 2013-04-12T12:00 | 17470 | 81 | -60.1 | |||
| 2013-04-12T12:00 | 17609 | 79 | -58.7 | |||
| 2013-04-12T12:00 | 18113 | 73 | -60.7 | |||
| 2013-04-12T12:00 | 18430 | 70 | -59.7 | 285 | 15 | |
| 2013-04-12T12:00 | 18466 | 69 | -59.9 | |||
| 2013-04-12T12:00 | 18612 | 68 | -57.9 | |||
| 2013-04-12T12:00 | 18895 | 65 | -59.1 | |||
| 2013-04-12T12:00 | 19002 | 63 | -58.1 | |||
| 2013-04-12T12:00 | 19221 | 61 | -59.7 | |||
| 2013-04-12T12:00 | 20067 | 53 | -58.1 | |||
| 2013-04-12T12:00 | 20540 | 50 | -59.3 | 260 | 8 | |
| 2013-04-12T12:00 | 20991 | 46 | -60.9 | |||
| 2013-04-12T12:00 | 21450 | 43 | -58.7 | |||
| 2013-04-12T12:00 | 21978 | 39 | -59.5 | |||
| 2013-04-12T12:00 | 22420 | 37 | -57.3 | |||
| 2013-04-12T12:00 | 23210 | 32 | -61.5 | |||
| 2013-04-12T12:00 | 23730 | 30 | -60.9 | 260 | 14 | |
| 2013-04-12T12:00 | 24362 | 27 | -59.5 | |||
| 2013-04-12T12:00 | 24743 | 25 | -57.5 | |||
| 2013-04-12T12:00 | 25097 | 24 | -59.1 | |||
| 2013-04-12T12:00 | 26076 | 20 | -59.7 | |||
| 2013-04-12T12:00 | 26270 | 20 | -57.5 | 290 | 13 | |
| 2013-04-12T12:00 | 26830 | 18 | -56.9 | |||
| 2013-04-12T12:00 | 27111 | 17 | -58.1 | |||
| 2013-04-12T12:00 | 27445 | 16 | -55.3 | |||
| 2013-04-12T12:00 | 27840 | 15 | -55.9 | |||
| 2013-04-12T12:00 | 28133 | 14 | -53.9 | |||
| 2013-04-12T12:00 | 28856 | 13 | -56.3 | |||
| 2013-04-12T12:00 | 29616 | 11 | -55.1 | |||
| 2013-04-12T12:00 | 30185 | 10 | -51.5 | |||
| 2013-04-12T12:00 | 30555 | 10 | -51.3 | |||
| 2013-04-12T12:00 | 30700 | 10 | -49.9 | 265 | 21 | |
| 2013-04-12T12:00 | 31176 | 9 | -47.9 | |||
| 2013-04-12T12:00 | 31318 | 9 | -48.5 | |||
| 2013-04-12T12:00 | 31848 | 8 | -44.5 | |||
| 2013-04-12T12:00 | 32091 | 8 | -44.1 | |||
| 2013-04-12T12:00 | 32428 | 7 | -46.1 | |||
| 2013-04-12T12:00 | 32603 | 7 | -43.7 | -79.7 | ||
| 2013-04-13T00:00 | 106 | 1000 | ||||
| 2013-04-13T00:00 | 762 | 925 | ||||
| 2013-04-13T00:00 | 1463 | 850 | ||||
| 2013-04-13T00:00 | 1760 | 820 | 6.6 | -2.4 | ||
| 2013-04-13T00:00 | 2448 | 753 | -0.1 | -4.1 | ||
| 2013-04-13T00:00 | 2770 | 723 | -3.1 | -4.2 | ||
| 2013-04-13T00:00 | 3002 | 702 | -4.5 | -5.6 | ||
| 2013-04-13T00:00 | 3029 | 700 | -4.5 | -5.8 | 285 | 5 |
| 2013-04-13T00:00 | 3108 | 693 | -4.7 | -8.9 | ||
| 2013-04-13T00:00 | 3176 | 687 | -4.9 | -9.9 | ||
| 2013-04-13T00:00 | 3361 | 671 | -3.3 | -14.3 | ||
| 2013-04-13T00:00 | 4410 | 586 | -12.7 | -23.7 | ||
| 2013-04-13T00:00 | 4673 | 566 | -14.9 | -25.9 | ||
| 2013-04-13T00:00 | 4999 | 542 | -16.7 | -30.7 | ||
| 2013-04-13T00:00 | 5600 | 500 | -22.1 | -35.1 | 300 | 20 |
| 2013-04-13T00:00 | 6426 | 446 | -29.5 | -40.5 | ||
| 2013-04-13T00:00 | 7200 | 400 | -34.9 | -45.9 | 305 | 22 |
| 2013-04-13T00:00 | 9150 | 300 | -49.1 | -58.1 | 310 | 28 |
| 2013-04-13T00:00 | 9348 | 291 | -50.9 | -59.9 | ||
| 2013-04-13T00:00 | 9950 | 265 | -54.7 | -62.7 | ||
| 2013-04-13T00:00 | 10047 | 261 | -54.9 | -62.9 | ||
| 2013-04-13T00:00 | 10146 | 257 | -53.9 | -61.9 | ||
| 2013-04-13T00:00 | 10320 | 250 | -55.1 | -63.1 | 300 | 32 |
| 2013-04-13T00:00 | 10397 | 247 | -55.5 | -63.5 | ||
| 2013-04-13T00:00 | 10713 | 235 | -56.1 | -64.1 | ||
| 2013-04-13T00:00 | 11456 | 209 | -55.9 | -63.9 | ||
| 2013-04-13T00:00 | 11578 | 205 | -56.3 | -64.3 | ||
| 2013-04-13T00:00 | 11672 | 202 | -54.9 | -62.9 | ||
| 2013-04-13T00:00 | 11740 | 200 | -52.9 | 280 | 24 | |
| 2013-04-13T00:00 | 11837 | 197 | -52.3 | -61.3 | ||
| 2013-04-13T00:00 | 12104 | 189 | -53.1 | -62.1 | ||
| 2013-04-13T00:00 | 12347 | 182 | -52.1 | -61.1 | ||
| 2013-04-13T00:00 | 12673 | 173 | -53.7 | -62.7 | ||
| 2013-04-13T00:00 | 13058 | 163 | -50.3 | -59.3 | ||
| 2013-04-13T00:00 | 13344 | 156 | -49.7 | -58.7 | ||
| 2013-04-13T00:00 | 13513 | 152 | -50.7 | -59.7 | ||
| 2013-04-13T00:00 | 13556 | 151 | -49.9 | -58.9 | ||
| 2013-04-13T00:00 | 13600 | 150 | -50.1 | 260 | 22 | |
| 2013-04-13T00:00 | 14047 | 140 | -52.5 | -61.5 | ||
| 2013-04-13T00:00 | 14187 | 137 | -51.9 | -60.9 | ||
| 2013-04-13T00:00 | 14426 | 132 | -53.3 | -62.3 | ||
| 2013-04-13T00:00 | 14674 | 127 | -53.1 | -62.1 | ||
| 2013-04-13T00:00 | 15365 | 114 | -54.7 | -63.7 | ||
| 2013-04-13T00:00 | 15650 | 109 | -57.1 | -66.1 | ||
| 2013-04-13T00:00 | 16200 | 100 | -58.9 | 255 | 23 | |
| 2013-04-13T00:00 | 17262 | 84 | -58.5 | |||
| 2013-04-13T00:00 | 17940 | 75 | -61.1 | |||
| 2013-04-13T00:00 | 18295 | 71 | -58.7 | |||
| 2013-04-13T00:00 | 18430 | 70 | -59.5 | 280 | 17 | |
| 2013-04-13T00:00 | 18547 | 68 | -60.3 | |||
| 2013-04-13T00:00 | 18742 | 66 | -56.9 | |||
| 2013-04-13T00:00 | 19495 | 59 | -57.7 | |||
| 2013-04-13T00:00 | 19712 | 57 | -56.7 | |||
| 2013-04-13T00:00 | 19902 | 55 | -58.3 | |||
| 2013-04-13T00:00 | 20146 | 53 | -55.9 | |||
| 2013-04-13T00:00 | 20560 | 50 | -57.3 | 260 | 12 | |
| 2013-04-13T00:00 | 21028 | 46 | -60.3 | |||
| 2013-04-13T00:00 | 21374 | 43 | -57.9 | |||
| 2013-04-13T00:00 | 21637 | 42 | -58.7 | |||
| 2013-04-13T00:00 | 21991 | 39 | -56.1 | |||
| 2013-04-13T00:00 | 22693 | 35 | -58.9 | |||
| 2013-04-13T00:00 | 23326 | 32 | -56.5 | |||
| 2013-04-13T00:00 | 23587 | 30 | -53.9 | |||
| 2013-04-13T00:00 | 23780 | 30 | -54.3 | 270 | 6 | |
| 2013-04-13T00:00 | 24355 | 27 | -57.7 | |||
| 2013-04-13T00:00 | 24859 | 25 | -55.7 | |||
| 2013-04-13T00:00 | 25517 | 22 | -57.5 | |||
| 2013-04-13T00:00 | 25801 | 21 | -54.5 | |||
| 2013-04-13T00:00 | 26132 | 20 | -53.3 | |||
| 2013-04-13T00:00 | 26360 | 20 | -53.9 | 255 | 14 | |
| 2013-04-13T00:00 | 27909 | 15 | -54.1 | |||
| 2013-04-13T00:00 | 28460 | 14 | -55.9 | |||
| 2013-04-13T00:00 | 29261 | 12 | -53.9 | |||
| 2013-04-13T00:00 | 29467 | 12 | -51.1 | |||
| 2013-04-13T00:00 | 30490 | 10 | -52.5 | |||
| 2013-04-13T00:00 | 30552 | 10 | -51.3 | -62.3 | ||
| 2013-04-13T12:00 | 76 | 1000 | ||||
| 2013-04-13T12:00 | 726 | 925 | ||||
| 2013-04-13T12:00 | 1424 | 850 | ||||
| 2013-04-13T12:00 | 1659 | 826 | 0.6 | -0.5 | ||
| 2013-04-13T12:00 | 1855 | 806 | 1.8 | -0.7 | ||
| 2013-04-13T12:00 | 1926 | 799 | 3.8 | -0.2 | ||
| 2013-04-13T12:00 | 2048 | 787 | 4.8 | -2.2 | ||
| 2013-04-13T12:00 | 2142 | 778 | 6.0 | -8.0 | ||
| 2013-04-13T12:00 | 2506 | 744 | 5.2 | -12.8 |
Only the first 2000 rows were shown. To view the complete dataset, download it as tab-delimited text. You can still view the full matrix in your browser, but be aware that this may crash the browser due to the huge size.
